Observation data for Caprock Canyons on 08/06/2020      Previous  Date       Current Mesonet Observations  Soil Data  Daily Summary Page  Observations in Plain Language
KQU1 060500Z 13008KT 24/18 A3002 RMK A01 T02430181  RH  068%=      5-min Rain = 0
KQU1 060501Z 13007KT 24/18 A3002 RMK A01 T02430181  RH  069%=      5-min Rain = 0
KQU1 060502Z 13006KT 24/18 A3002 RMK A01 T02430181  RH  069%=      5-min Rain = 0
KQU1 060503Z 12009KT 24/18 A3002 RMK A01 T02430181  RH  069%=      5-min Rain = 0
KQU1 060504Z 13009KT 24/18 A3002 RMK A01 T02430182  RH  069%=      5-min Rain = 0
KQU1 060505Z 12008KT 24/18 A3002 RMK A01 T02430182  RH  069%=      5-min Rain = 0
KQU1 060506Z 13009KT 24/18 A3002 RMK A01 T02430182  RH  069%=      5-min Rain = 0
KQU1 060507Z 13009KT 24/18 A3002 RMK A01 T02430182  RH  069%=      5-min Rain = 0
KQU1 060508Z 13008KT 24/18 A3002 RMK A01 T02430182  RH  069%=      5-min Rain = 0
KQU1 060509Z 13007KT 24/18 A3002 RMK A01 T02430182  RH  069%=      5-min Rain = 0
KQU1 060510Z 13007KT 24/18 A3002 RMK A01 T02420182  RH  069%=      5-min Rain = 0
KQU1 060511Z 13008KT 24/18 A3002 RMK A01 T02420182  RH  069%=      5-min Rain = 0
KQU1 060512Z 13008KT 24/18 A3002 RMK A01 T02420182  RH  069%=      5-min Rain = 0
KQU1 060513Z 13007KT 24/18 A3002 RMK A01 T02420182  RH  069%=      5-min Rain = 0
KQU1 060514Z 13006KT 24/18 A3002 RMK A01 T02420182  RH  069%=      5-min Rain = 0
KQU1 060515Z 12006KT 24/18 A3002 RMK A01 T02410182  RH  070%=      5-min Rain = 0
KQU1 060516Z 13006KT 24/18 A3002 RMK A01 T02410182  RH  070%=      5-min Rain = 0
KQU1 060517Z 13007KT 24/18 A3002 RMK A01 T02410182  RH  070%=      5-min Rain = 0
KQU1 060518Z 13006KT 24/18 A3002 RMK A01 T02400182  RH  070%=      5-min Rain = 0
KQU1 060519Z 13006KT 24/18 A3002 RMK A01 T02400183  RH  070%=      5-min Rain = 0
KQU1 060520Z 14006KT 24/18 A3002 RMK A01 T02400183  RH  070%=      5-min Rain = 0
KQU1 060521Z 12007KT 24/18 A3002 RMK A01 T02390182  RH  070%=      5-min Rain = 0
KQU1 060522Z 13007KT 24/18 A3002 RMK A01 T02390183  RH  071%=      5-min Rain = 0
KQU1 060523Z 13006KT 24/18 A3002 RMK A01 T02390183  RH  071%=      5-min Rain = 0
KQU1 060524Z 13007KT 24/18 A3002 RMK A01 T02390183  RH  071%=      5-min Rain = 0
KQU1 060525Z 13006KT 24/18 A3002 RMK A01 T02390183  RH  071%=      5-min Rain = 0
KQU1 060526Z 13008KT 24/18 A3002 RMK A01 T02390183  RH  071%=      5-min Rain = 0
KQU1 060527Z 12006KT 24/18 A3002 RMK A01 T02390183  RH  071%=      5-min Rain = 0
KQU1 060528Z 13006KT 24/18 A3002 RMK A01 T02390183  RH  071%=      5-min Rain = 0
KQU1 060529Z 13006KT 24/18 A3002 RMK A01 T02390183  RH  071%=      5-min Rain = 0
KQU1 060530Z 13007KT 24/18 A3002 RMK A01 T02380183  RH  071%=      5-min Rain = 0
KQU1 060531Z 13006KT 24/18 A3002 RMK A01 T02380183  RH  071%=      5-min Rain = 0
KQU1 060532Z 13006KT 24/18 A3002 RMK A01 T02380183  RH  071%=      5-min Rain = 0
KQU1 060533Z 13005KT 24/18 A3002 RMK A01 T02380183  RH  071%=      5-min Rain = 0
KQU1 060534Z 13005KT 24/18 A3002 RMK A01 T02380183  RH  071%=      5-min Rain = 0
KQU1 060535Z 12004KT 24/18 A3002 RMK A01 T02380183  RH  072%=      5-min Rain = 0
KQU1 060536Z 13004KT 24/18 A3002 RMK A01 T02370183  RH  072%=      5-min Rain = 0
KQU1 060537Z 13006KT 24/18 A3002 RMK A01 T02370183  RH  072%=      5-min Rain = 0
KQU1 060538Z 12005KT 24/18 A3002 RMK A01 T02370183  RH  072%=      5-min Rain = 0
KQU1 060539Z 13006KT 24/18 A3002 RMK A01 T02370183  RH  072%=      5-min Rain = 0
KQU1 060540Z 13006KT 24/18 A3002 RMK A01 T02370183  RH  072%=      5-min Rain = 0
KQU1 060541Z 13006KT 24/18 A3002 RMK A01 T02370183  RH  072%=      5-min Rain = 0
KQU1 060542Z 13005KT 24/18 A3002 RMK A01 T02370183  RH  072%=      5-min Rain = 0
KQU1 060543Z 12006KT 24/18 A3002 RMK A01 T02360183  RH  072%=      5-min Rain = 0
KQU1 060544Z 12006KT 24/18 A3002 RMK A01 T02360183  RH  072%=      5-min Rain = 0
KQU1 060545Z 13007KT 24/18 A3002 RMK A01 T02360183  RH  072%=      5-min Rain = 0
KQU1 060546Z 13006KT 24/18 A3002 RMK A01 T02360184  RH  072%=      5-min Rain = 0
KQU1 060547Z 13007KT 24/18 A3002 RMK A01 T02360184  RH  072%=      5-min Rain = 0
KQU1 060548Z 13005KT 24/18 A3002 RMK A01 T02360184  RH  072%=      5-min Rain = 0
KQU1 060549Z 13005KT 24/18 A3002 RMK A01 T02360184  RH  072%=      5-min Rain = 0
KQU1 060550Z 13004KT 24/18 A3002 RMK A01 T02360184  RH  072%=      5-min Rain = 0
KQU1 060551Z 13004KT 24/18 A3002 RMK A01 T02360184  RH  073%=      5-min Rain = 0
KQU1 060552Z 13004KT 24/18 A3002 RMK A01 T02350184  RH  073%=      5-min Rain = 0
KQU1 060553Z 13004KT 24/18 A3002 RMK A01 T02350184  RH  073%=      5-min Rain = 0
KQU1 060554Z 13004KT 24/18 A3002 RMK A01 T02350184  RH  073%=      5-min Rain = 0
KQU1 060555Z 14004KT 24/18 A3002 RMK A01 T02350184  RH  073%=      5-min Rain = 0
KQU1 060556Z 13005KT 23/18 A3002 RMK A01 T02340184  RH  073%=      5-min Rain = 0
KQU1 060557Z 13006KT 23/18 A3002 RMK A01 T02340184  RH  073%=      5-min Rain = 0
KQU1 060558Z 13005KT 23/18 A3002 RMK A01 T02340184  RH  073%=      5-min Rain = 0
KQU1 060559Z 13005KT 23/18 A3002 RMK A01 T02340184  RH  073%=      5-min Rain = 0
KQU1 060600Z 13005KT 23/18 A3002 RMK A01 T02340184  RH  073%=      5-min Rain = 0
KQU1 060601Z 13006KT 23/18 A3002 RMK A01 T02340184  RH  074%=      5-min Rain = 0
KQU1 060602Z 14005KT 23/18 A3002 RMK A01 T02340184  RH  074%=      5-min Rain = 0
KQU1 060603Z 13004KT 23/18 A3002 RMK A01 T02340184  RH  074%=      5-min Rain = 0
KQU1 060604Z 13004KT 23/18 A3002 RMK A01 T02340184  RH  074%=      5-min Rain = 0
KQU1 060605Z 14004KT 23/18 A3001 RMK A01 T02330184  RH  074%=      5-min Rain = 0
KQU1 060606Z 13003KT 23/18 A3001 RMK A01 T02330184  RH  074%=      5-min Rain = 0
KQU1 060607Z 13003KT 23/18 A3001 RMK A01 T02330184  RH  074%=      5-min Rain = 0
KQU1 060608Z 12003KT 23/18 A3001 RMK A01 T02330184  RH  074%=      5-min Rain = 0
KQU1 060609Z 12003KT 23/18 A3001 RMK A01 T02330184  RH  074%=      5-min Rain = 0
KQU1 060610Z 13004KT 23/18 A3001 RMK A01 T02330184  RH  074%=      5-min Rain = 0
KQU1 060611Z 12003KT 23/18 A3001 RMK A01 T02320184  RH  074%=      5-min Rain = 0
KQU1 060612Z 13003KT 23/18 A3001 RMK A01 T02320184  RH  074%=      5-min Rain = 0
KQU1 060613Z 14003KT 23/18 A3001 RMK A01 T02320184  RH  074%=      5-min Rain = 0
KQU1 060614Z 15002KT 23/18 A3001 RMK A01 T02320184  RH  074%=      5-min Rain = 0
KQU1 060615Z 14003KT 23/18 A3001 RMK A01 T02310184  RH  075%=      5-min Rain = 0
KQU1 060616Z 13003KT 23/18 A3001 RMK A01 T02310184  RH  075%=      5-min Rain = 0
KQU1 060617Z 13003KT 23/18 A3001 RMK A01 T02310184  RH  075%=      5-min Rain = 0
KQU1 060618Z 13002KT 23/18 A3001 RMK A01 T02310184  RH  075%=      5-min Rain = 0
KQU1 060619Z 13002KT 23/18 A3001 RMK A01 T02310184  RH  075%=      5-min Rain = 0
KQU1 060620Z 12002KT 23/18 A3001 RMK A01 T02300184  RH  075%=      5-min Rain = 0
KQU1 060621Z 12002KT 23/18 A3001 RMK A01 T02300184  RH  075%=      5-min Rain = 0
KQU1 060622Z 12001KT 23/18 A3001 RMK A01 T02300184  RH  075%=      5-min Rain = 0
KQU1 060623Z 11002KT 23/18 A3001 RMK A01 T02300184  RH  075%=      5-min Rain = 0
KQU1 060624Z 12002KT 23/18 A3001 RMK A01 T02300184  RH  075%=      5-min Rain = 0
KQU1 060625Z 12003KT 23/18 A3001 RMK A01 T02300184  RH  075%=      5-min Rain = 0
KQU1 060626Z 13002KT 23/18 A3001 RMK A01 T02300184  RH  075%=      5-min Rain = 0
KQU1 060627Z 13002KT 23/18 A3001 RMK A01 T02300184  RH  075%=      5-min Rain = 0
KQU1 060628Z 12001KT 23/18 A3001 RMK A01 T02300184  RH  076%=      5-min Rain = 0
KQU1 060629Z 12001KT 23/18 A3001 RMK A01 T02300184  RH  076%=      5-min Rain = 0
KQU1 060630Z 14001KT 23/18 A3001 RMK A01 T02290184  RH  076%=      5-min Rain = 0
KQU1 060631Z 12000KT 23/18 A3001 RMK A01 T02290184  RH  076%=      5-min Rain = 0
KQU1 060632Z 12001KT 23/18 A3001 RMK A01 T02290184  RH  076%=      5-min Rain = 0
KQU1 060633Z 13000KT 23/18 A3001 RMK A01 T02290184  RH  076%=      5-min Rain = 0
KQU1 060634Z 00000KT 23/18 A3001 RMK A01 T02290184  RH  076%=      5-min Rain = 0
KQU1 060635Z 00000KT 23/18 A3001 RMK A01 T02290184  RH  076%=      5-min Rain = 0
KQU1 060636Z 00000KT 23/18 A3001 RMK A01 T02300184  RH  075%=      5-min Rain = 0
KQU1 060637Z 00000KT 23/18 A3001 RMK A01 T02300184  RH  075%=      5-min Rain = 0
KQU1 060638Z 00000KT 23/18 A3001 RMK A01 T02290184  RH  075%=      5-min Rain = 0
KQU1 060639Z 11000KT 23/18 A3001 RMK A01 T02290184  RH  075%=      5-min Rain = 0
KQU1 060640Z 11001KT 23/18 A3001 RMK A01 T02290184  RH  075%=      5-min Rain = 0
KQU1 060641Z 11001KT 23/18 A3001 RMK A01 T02290184  RH  076%=      5-min Rain = 0
KQU1 060642Z 08000KT 23/18 A3001 RMK A01 T02290184  RH  076%=      5-min Rain = 0
KQU1 060643Z 10001KT 23/18 A3001 RMK A01 T02300184  RH  076%=      5-min Rain = 0
KQU1 060644Z 11000KT 23/18 A3001 RMK A01 T02300184  RH  076%=      5-min Rain = 0
KQU1 060645Z 11000KT 23/18 A3001 RMK A01 T02300184  RH  075%=      5-min Rain = 0
KQU1 060646Z 10001KT 23/18 A3001 RMK A01 T02300184  RH  075%=      5-min Rain = 0
KQU1 060647Z 10000KT 23/18 A3001 RMK A01 T02300184  RH  075%=      5-min Rain = 0
KQU1 060648Z 00000KT 23/18 A3001 RMK A01 T02300184  RH  075%=      5-min Rain = 0
KQU1 060649Z 00000KT 23/18 A3001 RMK A01 T02300184  RH  075%=      5-min Rain = 0
KQU1 060650Z 00000KT 23/18 A3001 RMK A01 T02300184  RH  075%=      5-min Rain = 0
KQU1 060651Z 13001KT 23/18 A3001 RMK A01 T02300184  RH  075%=      5-min Rain = 0
KQU1 060652Z 14001KT 23/18 A3001 RMK A01 T02300184  RH  075%=      5-min Rain = 0
KQU1 060653Z 14001KT 23/18 A3001 RMK A01 T02300184  RH  075%=      5-min Rain = 0
KQU1 060654Z 14001KT 23/18 A3001 RMK A01 T02300184  RH  075%=      5-min Rain = 0
KQU1 060655Z 13002KT 23/18 A3001 RMK A01 T02300184  RH  075%=      5-min Rain = 0
KQU1 060656Z 12002KT 23/18 A3001 RMK A01 T02300184  RH  075%=      5-min Rain = 0
KQU1 060657Z 12002KT 23/18 A3001 RMK A01 T02300184  RH  076%=      5-min Rain = 0
KQU1 060658Z 12001KT 23/18 A3001 RMK A01 T02300184  RH  076%=      5-min Rain = 0
KQU1 060659Z 13002KT 23/18 A3001 RMK A01 T02290184  RH  076%=      5-min Rain = 0
KQU1 060700Z 12002KT 23/18 A3001 RMK A01 T02290184  RH  076%=      5-min Rain = 0
KQU1 060701Z 12002KT 23/18 A3001 RMK A01 T02290184  RH  076%=      5-min Rain = 0
KQU1 060702Z 10002KT 23/18 A3001 RMK A01 T02290184  RH  076%=      5-min Rain = 0
KQU1 060703Z 12001KT 23/18 A3001 RMK A01 T02290184  RH  076%=      5-min Rain = 0
KQU1 060704Z 12002KT 23/18 A3001 RMK A01 T02290184  RH  076%=      5-min Rain = 0
KQU1 060705Z 10001KT 23/18 A3001 RMK A01 T02290184  RH  076%=      5-min Rain = 0
KQU1 060706Z 12001KT 23/18 A3001 RMK A01 T02290184  RH  076%=      5-min Rain = 0
KQU1 060707Z 13002KT 23/18 A3001 RMK A01 T02290184  RH  076%=      5-min Rain = 0
KQU1 060708Z 13001KT 23/18 A3001 RMK A01 T02290184  RH  076%=      5-min Rain = 0
KQU1 060709Z 15001KT 23/18 A3001 RMK A01 T02280184  RH  076%=      5-min Rain = 0
KQU1 060710Z 14001KT 23/18 A3001 RMK A01 T02280184  RH  076%=      5-min Rain = 0
KQU1 060711Z 15001KT 23/18 A3001 RMK A01 T02280184  RH  076%=      5-min Rain = 0
KQU1 060712Z 15001KT 23/18 A3001 RMK A01 T02280184  RH  076%=      5-min Rain = 0
KQU1 060713Z 15001KT 23/19 A3001 RMK A01 T02290185  RH  076%=      5-min Rain = 0
KQU1 060714Z 13002KT 23/18 A3001 RMK A01 T02290184  RH  076%=      5-min Rain = 0
KQU1 060715Z 15002KT 23/18 A3001 RMK A01 T02290184  RH  076%=      5-min Rain = 0
KQU1 060716Z 12001KT 23/18 A3001 RMK A01 T02290184  RH  076%=      5-min Rain = 0
KQU1 060717Z 12002KT 23/19 A3001 RMK A01 T02290185  RH  076%=      5-min Rain = 0
KQU1 060718Z 12001KT 23/18 A3001 RMK A01 T02290184  RH  076%=      5-min Rain = 0
KQU1 060719Z 11001KT 23/18 A3001 RMK A01 T02290184  RH  076%=      5-min Rain = 0
KQU1 060720Z 11002KT 23/18 A3001 RMK A01 T02290184  RH  076%=      5-min Rain = 0
KQU1 060721Z 11001KT 23/18 A3001 RMK A01 T02290184  RH  076%=      5-min Rain = 0
KQU1 060722Z 11003KT 23/19 A3001 RMK A01 T02280185  RH  076%=      5-min Rain = 0
KQU1 060723Z 11003KT 23/19 A3001 RMK A01 T02280185  RH  076%=      5-min Rain = 0
KQU1 060724Z 13003KT 23/19 A3001 RMK A01 T02280185  RH  076%=      5-min Rain = 0
KQU1 060725Z 12002KT 23/19 A3001 RMK A01 T02280185  RH  077%=      5-min Rain = 0
KQU1 060726Z 11003KT 23/19 A3001 RMK A01 T02280185  RH  077%=      5-min Rain = 0
KQU1 060727Z 12003KT 23/19 A3001 RMK A01 T02280185  RH  077%=      5-min Rain = 0
KQU1 060728Z 12003KT 23/19 A3001 RMK A01 T02270185  RH  077%=      5-min Rain = 0
KQU1 060729Z 12003KT 23/19 A3001 RMK A01 T02270185  RH  077%=      5-min Rain = 0
KQU1 060730Z 13004KT 23/19 A3001 RMK A01 T02270185  RH  077%=      5-min Rain = 0
KQU1 060731Z 12003KT 23/19 A3001 RMK A01 T02270185  RH  077%=      5-min Rain = 0
KQU1 060732Z 12004KT 23/19 A3001 RMK A01 T02270185  RH  077%=      5-min Rain = 0
KQU1 060733Z 11004KT 23/19 A3001 RMK A01 T02270185  RH  077%=      5-min Rain = 0
KQU1 060734Z 12003KT 23/19 A3001 RMK A01 T02270185  RH  077%=      5-min Rain = 0
KQU1 060735Z 12003KT 23/19 A3001 RMK A01 T02270185  RH  077%=      5-min Rain = 0
KQU1 060736Z 12004KT 23/19 A3001 RMK A01 T02270185  RH  077%=      5-min Rain = 0
KQU1 060737Z 12004KT 23/19 A3001 RMK A01 T02260185  RH  078%=      5-min Rain = 0
KQU1 060738Z 12003KT 23/19 A3001 RMK A01 T02260185  RH  078%=      5-min Rain = 0
KQU1 060739Z 12003KT 23/19 A3001 RMK A01 T02260185  RH  078%=      5-min Rain = 0
KQU1 060740Z 12003KT 23/19 A3001 RMK A01 T02260185  RH  078%=      5-min Rain = 0
KQU1 060741Z 13002KT 23/19 A3001 RMK A01 T02260185  RH  078%=      5-min Rain = 0
KQU1 060742Z 12002KT 23/19 A3001 RMK A01 T02260185  RH  078%=      5-min Rain = 0
KQU1 060743Z 13002KT 23/19 A3001 RMK A01 T02250185  RH  078%=      5-min Rain = 0
KQU1 060744Z 12002KT 23/19 A3001 RMK A01 T02250185  RH  078%=      5-min Rain = 0
KQU1 060745Z 12003KT 23/19 A3001 RMK A01 T02250185  RH  078%=      5-min Rain = 0
KQU1 060746Z 13003KT 23/19 A30 RMK A01 T02250185  RH  078%=      5-min Rain = 0
KQU1 060747Z 12003KT 22/19 A30 RMK A01 T02240185  RH  078%=      5-min Rain = 0
KQU1 060748Z 13004KT 22/19 A30 RMK A01 T02240185  RH  079%=      5-min Rain = 0
KQU1 060749Z 13004KT 22/19 A30 RMK A01 T02240186  RH  079%=      5-min Rain = 0
KQU1 060750Z 13004KT 22/19 A30 RMK A01 T02240186  RH  079%=      5-min Rain = 0
KQU1 060751Z 12004KT 22/19 A30 RMK A01 T02240186  RH  079%=      5-min Rain = 0
KQU1 060752Z 13004KT 22/19 A30 RMK A01 T02240186  RH  079%=      5-min Rain = 0
KQU1 060753Z 12004KT 22/19 A30 RMK A01 T02230186  RH  079%=      5-min Rain = 0
KQU1 060754Z 13004KT 22/19 A30 RMK A01 T02230186  RH  079%=      5-min Rain = 0
KQU1 060755Z 12004KT 22/19 A30 RMK A01 T02230186  RH  079%=      5-min Rain = 0
KQU1 060756Z 13004KT 22/19 A30 RMK A01 T02230186  RH  079%=      5-min Rain = 0
KQU1 060757Z 13003KT 22/19 A30 RMK A01 T02230186  RH  079%=      5-min Rain = 0
KQU1 060758Z 13004KT 22/19 A30 RMK A01 T02230186  RH  080%=      5-min Rain = 0
KQU1 060759Z 13003KT 22/19 A30 RMK A01 T02230186  RH  080%=      5-min Rain = 0
KQU1 060800Z 13004KT 22/19 A30 RMK A01 T02230186  RH  080%=      5-min Rain = 0
KQU1 060801Z 13003KT 22/19 A30 RMK A01 T02220186  RH  080%=      5-min Rain = 0
KQU1 060802Z 13004KT 22/19 A30 RMK A01 T02220186  RH  080%=      5-min Rain = 0
KQU1 060803Z 13003KT 22/19 A30 RMK A01 T02220186  RH  080%=      5-min Rain = 0
KQU1 060804Z 13004KT 22/19 A30 RMK A01 T02210186  RH  080%=      5-min Rain = 0
KQU1 060805Z 13004KT 22/19 A30 RMK A01 T02210186  RH  080%=      5-min Rain = 0
KQU1 060806Z 13004KT 22/19 A30 RMK A01 T02210186  RH  081%=      5-min Rain = 0
KQU1 060807Z 13004KT 22/19 A30 RMK A01 T02200186  RH  081%=      5-min Rain = 0
KQU1 060808Z 13004KT 22/19 A30 RMK A01 T02200186  RH  081%=      5-min Rain = 0
KQU1 060809Z 13004KT 22/19 A30 RMK A01 T02200186  RH  081%=      5-min Rain = 0
KQU1 060810Z 13004KT 22/19 A30 RMK A01 T02200186  RH  081%=      5-min Rain = 0
KQU1 060811Z 13003KT 22/19 A30 RMK A01 T02200186  RH  081%=      5-min Rain = 0
KQU1 060812Z 12003KT 22/19 A30 RMK A01 T02190186  RH  081%=      5-min Rain = 0
KQU1 060813Z 12003KT 22/19 A30 RMK A01 T02190186  RH  081%=      5-min Rain = 0
KQU1 060814Z 12003KT 22/19 A30 RMK A01 T02190186  RH  082%=      5-min Rain = 0
KQU1 060815Z 12003KT 22/19 A30 RMK A01 T02190186  RH  082%=      5-min Rain = 0
KQU1 060816Z 11003KT 22/19 A30 RMK A01 T02190187  RH  082%=      5-min Rain = 0
KQU1 060817Z 10003KT 22/19 A30 RMK A01 T02190187  RH  082%=      5-min Rain = 0
KQU1 060818Z 10003KT 22/19 A30 RMK A01 T02190187  RH  082%=      5-min Rain = 0
KQU1 060819Z 10002KT 22/19 A30 RMK A01 T02200187  RH  082%=      5-min Rain = 0
KQU1 060820Z 09002KT 22/19 A30 RMK A01 T02200187  RH  082%=      5-min Rain = 0
KQU1 060821Z 08003KT 22/19 A30 RMK A01 T02200187  RH  082%=      5-min Rain = 0
KQU1 060822Z 08003KT 22/19 A30 RMK A01 T02200187  RH  082%=      5-min Rain = 0
KQU1 060823Z 08003KT 22/19 A30 RMK A01 T02200187  RH  082%=      5-min Rain = 0
KQU1 060824Z 08003KT 22/19 A30 RMK A01 T02210187  RH  081%=      5-min Rain = 0
KQU1 060825Z 08003KT 22/19 A30 RMK A01 T02210187  RH  081%=      5-min Rain = 0
KQU1 060826Z 08003KT 22/19 A30 RMK A01 T02210188  RH  081%=      5-min Rain = 0
KQU1 060827Z 09003KT 22/19 A30 RMK A01 T02210188  RH  082%=      5-min Rain = 0
KQU1 060828Z 09004KT 22/19 A30 RMK A01 T02210188  RH  082%=      5-min Rain = 0
KQU1 060829Z 09003KT 22/19 A30 RMK A01 T02210188  RH  082%=      5-min Rain = 0
KQU1 060830Z 09003KT 22/19 A30 RMK A01 T02210188  RH  082%=      5-min Rain = 0
KQU1 060831Z 09003KT 22/19 A30 RMK A01 T02210188  RH  082%=      5-min Rain = 0
KQU1 060832Z 09003KT 22/19 A30 RMK A01 T02210188  RH  082%=      5-min Rain = 0
KQU1 060833Z 09003KT 22/19 A30 RMK A01 T02210188  RH  082%=      5-min Rain = 0
KQU1 060834Z 08003KT 22/19 A30 RMK A01 T02210188  RH  082%=      5-min Rain = 0
KQU1 060835Z 08003KT 22/19 A30 RMK A01 T02210188  RH  082%=      5-min Rain = 0
KQU1 060836Z 08003KT 22/19 A30 RMK A01 T02210188  RH  082%=      5-min Rain = 0
KQU1 060837Z 08003KT 22/19 A30 RMK A01 T02200189  RH  082%=      5-min Rain = 0
KQU1 060838Z 08002KT 22/19 A30 RMK A01 T02200188  RH  082%=      5-min Rain = 0
KQU1 060839Z 07003KT 22/19 A30 RMK A01 T02200189  RH  082%=      5-min Rain = 0
KQU1 060840Z 07003KT 22/19 A30 RMK A01 T02200189  RH  082%=      5-min Rain = 0
KQU1 060841Z 06003KT 22/19 A30 RMK A01 T02200189  RH  082%=      5-min Rain = 0
KQU1 060842Z 05003KT 22/19 A30 RMK A01 T02200188  RH  082%=      5-min Rain = 0
KQU1 060843Z 05003KT 22/19 A30 RMK A01 T02200189  RH  082%=      5-min Rain = 0
KQU1 060844Z 05003KT 22/19 A30 RMK A01 T02200189  RH  083%=      5-min Rain = 0
KQU1 060845Z 05003KT 22/19 A30 RMK A01 T02200189  RH  083%=      5-min Rain = 0
KQU1 060846Z 06003KT 22/19 A30 RMK A01 T02200189  RH  083%=      5-min Rain = 0
KQU1 060847Z 06003KT 22/19 A30 RMK A01 T02200189  RH  083%=      5-min Rain = 0
KQU1 060848Z 06003KT 22/19 A30 RMK A01 T02200189  RH  083%=      5-min Rain = 0
KQU1 060849Z 06003KT 22/19 A30 RMK A01 T02200189  RH  083%=      5-min Rain = 0
KQU1 060850Z 06003KT 22/19 A30 RMK A01 T02190189  RH  083%=      5-min Rain = 0
KQU1 060851Z 06004KT 22/19 A30 RMK A01 T02190189  RH  083%=      5-min Rain = 0
KQU1 060852Z 06003KT 22/19 A30 RMK A01 T02190189  RH  083%=      5-min Rain = 0
KQU1 060853Z 06003KT 22/19 A30 RMK A01 T02190189  RH  083%=      5-min Rain = 0
KQU1 060854Z 05003KT 22/19 A30 RMK A01 T02190189  RH  083%=      5-min Rain = 0
KQU1 060855Z 04003KT 22/19 A3001 RMK A01 T02190189  RH  083%=      5-min Rain = 0
KQU1 060856Z 05003KT 22/19 A3001 RMK A01 T02190190  RH  084%=      5-min Rain = 0
KQU1 060857Z 04003KT 22/19 A3001 RMK A01 T02190190  RH  084%=      5-min Rain = 0
KQU1 060858Z 04003KT 22/19 A3001 RMK A01 T02190191  RH  084%=      5-min Rain = 0
KQU1 060859Z 04004KT 22/19 A3001 RMK A01 T02190191  RH  084%=      5-min Rain = 0
KQU1 060900Z 04004KT 22/19 A3001 RMK A01 T02190191  RH  084%=      5-min Rain = 0
KQU1 060901Z 04004KT 22/19 A3001 RMK A01 T02190191  RH  084%=      5-min Rain = 0
KQU1 060902Z 06003KT 22/19 A3001 RMK A01 T02200191  RH  084%=      5-min Rain = 0
KQU1 060903Z 05003KT 22/19 A3001 RMK A01 T02200191  RH  084%=      5-min Rain = 0
KQU1 060904Z 05003KT 22/19 A3001 RMK A01 T02200191  RH  084%=      5-min Rain = 0
KQU1 060905Z 05002KT 22/19 A3001 RMK A01 T02200191  RH  084%=      5-min Rain = 0
KQU1 060906Z 04003KT 22/19 A3001 RMK A01 T02200191  RH  084%=      5-min Rain = 0
KQU1 060907Z 04003KT 22/19 A3001 RMK A01 T02200191  RH  084%=      5-min Rain = 0
KQU1 060908Z 06002KT 22/19 A30 RMK A01 T02200191  RH  084%=      5-min Rain = 0
KQU1 060909Z 06003KT 22/19 A30 RMK A01 T02200190  RH  083%=      5-min Rain = 0
KQU1 060910Z 07003KT 22/19 A30 RMK A01 T02200190  RH  083%=      5-min Rain = 0
KQU1 060911Z 07003KT 22/19 A30 RMK A01 T02200190  RH  083%=      5-min Rain = 0
KQU1 060912Z 06004KT 22/19 A30 RMK A01 T02190190  RH  083%=      5-min Rain = 0
KQU1 060913Z 07003KT 22/19 A30 RMK A01 T02190190  RH  083%=      5-min Rain = 0
KQU1 060914Z 08003KT 22/19 A30 RMK A01 T02190190  RH  083%=      5-min Rain = 0
KQU1 060915Z 08003KT 22/19 A30 RMK A01 T02190189  RH  083%=      5-min Rain = 0
KQU1 060916Z 07002KT 22/19 A30 RMK A01 T02190189  RH  083%=      5-min Rain = 0
KQU1 060917Z 06003KT 22/19 A30 RMK A01 T02190189  RH  083%=      5-min Rain = 0
KQU1 060918Z 08003KT 22/19 A30 RMK A01 T02180189  RH  083%=      5-min Rain = 0
KQU1 060919Z 07003KT 22/19 A30 RMK A01 T02180189  RH  083%=      5-min Rain = 0
KQU1 060920Z 06002KT 22/19 A30 RMK A01 T02180188  RH  083%=      5-min Rain = 0
KQU1 060921Z 06002KT 22/19 A30 RMK A01 T02180188  RH  083%=      5-min Rain = 0
KQU1 060922Z 06002KT 22/19 A30 RMK A01 T02180188  RH  083%=      5-min Rain = 0
KQU1 060923Z 07002KT 22/19 A30 RMK A01 T02180188  RH  083%=      5-min Rain = 0
KQU1 060924Z 06003KT 22/19 A30 RMK A01 T02170188  RH  084%=      5-min Rain = 0
KQU1 060925Z 07003KT 22/19 A30 RMK A01 T02170189  RH  084%=      5-min Rain = 0
KQU1 060926Z 06002KT 22/19 A30 RMK A01 T02170188  RH  083%=      5-min Rain = 0
KQU1 060927Z 07001KT 22/19 A30 RMK A01 T02170188  RH  083%=      5-min Rain = 0
KQU1 060928Z 07002KT 22/19 A30 RMK A01 T02170188  RH  084%=      5-min Rain = 0
KQU1 060929Z 07002KT 22/19 A30 RMK A01 T02170188  RH  084%=      5-min Rain = 0
KQU1 060930Z 07003KT 22/19 A30 RMK A01 T02170188  RH  084%=      5-min Rain = 0
KQU1 060931Z 08002KT 22/19 A30 RMK A01 T02170189  RH  084%=      5-min Rain = 0
KQU1 060932Z 08002KT 22/19 A30 RMK A01 T02170189  RH  084%=      5-min Rain = 0
KQU1 060933Z 08002KT 22/19 A30 RMK A01 T02170188  RH  084%=      5-min Rain = 0
KQU1 060934Z 09002KT 22/19 A30 RMK A01 T02170188  RH  084%=      5-min Rain = 0
KQU1 060935Z 09002KT 22/19 A30 RMK A01 T02170188  RH  084%=      5-min Rain = 0
KQU1 060936Z 10002KT 22/19 A30 RMK A01 T02170189  RH  084%=      5-min Rain = 0
KQU1 060937Z 10003KT 22/19 A2999 RMK A01 T02170188  RH  084%=      5-min Rain = 0
KQU1 060938Z 10003KT 22/19 A2999 RMK A01 T02160189  RH  084%=      5-min Rain = 0
KQU1 060939Z 11003KT 22/19 A2999 RMK A01 T02160189  RH  084%=      5-min Rain = 0
KQU1 060940Z 11004KT 22/19 A2999 RMK A01 T02160189  RH  084%=      5-min Rain = 0
KQU1 060941Z 11003KT 22/19 A2999 RMK A01 T02160189  RH  085%=      5-min Rain = 0
KQU1 060942Z 11003KT 22/19 A2999 RMK A01 T02160189  RH  085%=      5-min Rain = 0
KQU1 060943Z 12003KT 22/19 A2999 RMK A01 T02160189  RH  085%=      5-min Rain = 0
KQU1 060944Z 12003KT 22/19 A2999 RMK A01 T02150189  RH  085%=      5-min Rain = 0
KQU1 060945Z 12004KT 22/19 A2999 RMK A01 T02150189  RH  085%=      5-min Rain = 0
KQU1 060946Z 12004KT 22/19 A2999 RMK A01 T02150189  RH  085%=      5-min Rain = 0
KQU1 060947Z 12003KT 22/19 A2999 RMK A01 T02150189  RH  085%=      5-min Rain = 0
KQU1 060948Z 12003KT 22/19 A2999 RMK A01 T02150190  RH  085%=      5-min Rain = 0
KQU1 060949Z 12003KT 22/19 A2999 RMK A01 T02150190  RH  085%=      5-min Rain = 0
KQU1 060950Z 12003KT 22/19 A2999 RMK A01 T02150190  RH  086%=      5-min Rain = 0
KQU1 060951Z 13003KT 22/19 A2999 RMK A01 T02150190  RH  086%=      5-min Rain = 0
KQU1 060952Z 13003KT 22/19 A2999 RMK A01 T02150190  RH  086%=      5-min Rain = 0
KQU1 060953Z 13003KT 21/19 A2999 RMK A01 T02140190  RH  086%=      5-min Rain = 0
KQU1 060954Z 14003KT 21/19 A2999 RMK A01 T02140190  RH  086%=      5-min Rain = 0
KQU1 060955Z 14003KT 21/19 A2999 RMK A01 T02140190  RH  086%=      5-min Rain = 0
KQU1 060956Z 15002KT 21/19 A2999 RMK A01 T02140190  RH  086%=      5-min Rain = 0
KQU1 060957Z 15003KT 21/19 A2999 RMK A01 T02140190  RH  086%=      5-min Rain = 0
KQU1 060958Z 15003KT 21/19 A2999 RMK A01 T02130189  RH  086%=      5-min Rain = 0
KQU1 060959Z 15003KT 21/19 A2999 RMK A01 T02130189  RH  086%=      5-min Rain = 0
KQU1 061000Z 16003KT 21/19 A2999 RMK A01 T02130189  RH  086%=      5-min Rain = 0
KQU1 061001Z 16002KT 21/19 A2999 RMK A01 T02130189  RH  086%=      5-min Rain = 0
KQU1 061002Z 17002KT 21/19 A2999 RMK A01 T02130189  RH  086%=      5-min Rain = 0
KQU1 061003Z 17003KT 21/19 A2999 RMK A01 T02130189  RH  086%=      5-min Rain = 0
KQU1 061004Z 17003KT 21/19 A2999 RMK A01 T02130189  RH  086%=      5-min Rain = 0
KQU1 061005Z 17003KT 21/19 A2999 RMK A01 T02130190  RH  086%=      5-min Rain = 0
KQU1 061006Z 17003KT 21/19 A2999 RMK A01 T02130190  RH  086%=      5-min Rain = 0
KQU1 061007Z 17003KT 21/19 A2999 RMK A01 T02130189  RH  086%=      5-min Rain = 0
KQU1 061008Z 17003KT 21/19 A2999 RMK A01 T02130190  RH  086%=      5-min Rain = 0
KQU1 061009Z 17003KT 21/19 A2999 RMK A01 T02130189  RH  086%=      5-min Rain = 0
KQU1 061010Z 17003KT 21/19 A2999 RMK A01 T02130190  RH  086%=      5-min Rain = 0
KQU1 061011Z 17003KT 21/19 A2999 RMK A01 T02130190  RH  086%=      5-min Rain = 0
KQU1 061012Z 16004KT 21/19 A2999 RMK A01 T02130189  RH  086%=      5-min Rain = 0
KQU1 061013Z 16004KT 21/19 A2999 RMK A01 T02130190  RH  087%=      5-min Rain = 0
KQU1 061014Z 16004KT 21/19 A2999 RMK A01 T02120190  RH  087%=      5-min Rain = 0
KQU1 061015Z 16004KT 21/19 A2998 RMK A01 T02120190  RH  087%=      5-min Rain = 0
KQU1 061016Z 17004KT 21/19 A2998 RMK A01 T02120190  RH  087%=      5-min Rain = 0
KQU1 061017Z 16004KT 21/19 A2998 RMK A01 T02120190  RH  087%=      5-min Rain = 0
KQU1 061018Z 16004KT 21/19 A2998 RMK A01 T02120190  RH  087%=      5-min Rain = 0
KQU1 061019Z 17005KT 21/19 A2998 RMK A01 T02120190  RH  087%=      5-min Rain = 0
KQU1 061020Z 16005KT 21/19 A2998 RMK A01 T02120190  RH  087%=      5-min Rain = 0
KQU1 061021Z 16005KT 21/19 A2998 RMK A01 T02120190  RH  087%=      5-min Rain = 0
KQU1 061022Z 16005KT 21/19 A2998 RMK A01 T02120190  RH  087%=      5-min Rain = 0
KQU1 061023Z 16004KT 21/19 A2998 RMK A01 T02120190  RH  088%=      5-min Rain = 0
KQU1 061024Z 16005KT 21/19 A2998 RMK A01 T02120190  RH  088%=      5-min Rain = 0
KQU1 061025Z 16005KT 21/19 A2998 RMK A01 T02120190  RH  088%=      5-min Rain = 0
KQU1 061026Z 17005KT 21/19 A2998 RMK A01 T02120191  RH  088%=      5-min Rain = 0
KQU1 061027Z 16005KT 21/19 A2998 RMK A01 T02120191  RH  087%=      5-min Rain = 0
KQU1 061028Z 16005KT 21/19 A2998 RMK A01 T02120191  RH  088%=      5-min Rain = 0
KQU1 061029Z 16005KT 21/19 A2998 RMK A01 T02120191  RH  088%=      5-min Rain = 0
KQU1 061030Z 17005KT 21/19 A2998 RMK A01 T02120191  RH  088%=      5-min Rain = 0
KQU1 061031Z 17005KT 21/19 A2998 RMK A01 T02120191  RH  088%=      5-min Rain = 0
KQU1 061032Z 16005KT 21/19 A2998 RMK A01 T02120191  RH  088%=      5-min Rain = 0
KQU1 061033Z 16005KT 21/19 A2998 RMK A01 T02120191  RH  088%=      5-min Rain = 0
KQU1 061034Z 16005KT 21/19 A2998 RMK A01 T02120191  RH  088%=      5-min Rain = 0
KQU1 061035Z 17004KT 21/19 A2998 RMK A01 T02120191  RH  088%=      5-min Rain = 0
KQU1 061036Z 17003KT 21/19 A2998 RMK A01 T02120191  RH  088%=      5-min Rain = 0
KQU1 061037Z 17003KT 21/19 A2998 RMK A01 T02120191  RH  088%=      5-min Rain = 0
KQU1 061038Z 17003KT 21/19 A2998 RMK A01 T02120191  RH  088%=      5-min Rain = 0
KQU1 061039Z 17002KT 21/19 A2998 RMK A01 T02120191  RH  088%=      5-min Rain = 0
KQU1 061040Z 17003KT 21/19 A2998 RMK A01 T02120191  RH  088%=      5-min Rain = 0
KQU1 061041Z 17003KT 21/19 A2998 RMK A01 T02110191  RH  088%=      5-min Rain = 0
KQU1 061042Z 17003KT 21/19 A2998 RMK A01 T02110191  RH  088%=      5-min Rain = 0
KQU1 061043Z 17002KT 21/19 A2998 RMK A01 T02120191  RH  088%=      5-min Rain = 0
KQU1 061044Z 17002KT 21/19 A2998 RMK A01 T02120191  RH  088%=      5-min Rain = 0
KQU1 061045Z 16002KT 21/19 A2999 RMK A01 T02110191  RH  088%=      5-min Rain = 0
KQU1 061046Z 17002KT 21/19 A2999 RMK A01 T02110191  RH  088%=      5-min Rain = 0
KQU1 061047Z 16002KT 21/19 A2999 RMK A01 T02110191  RH  088%=      5-min Rain = 0
KQU1 061048Z 17000KT 21/19 A2999 RMK A01 T02110191  RH  088%=      5-min Rain = 0
KQU1 061049Z 17001KT 21/19 A2999 RMK A01 T02110191  RH  088%=      5-min Rain = 0
KQU1 061050Z 17002KT 21/19 A2999 RMK A01 T02110191  RH  088%=      5-min Rain = 0
KQU1 061051Z 17002KT 21/19 A2999 RMK A01 T02110191  RH  088%=      5-min Rain = 0
KQU1 061052Z 18002KT 21/19 A2999 RMK A01 T02110191  RH  088%=      5-min Rain = 0
KQU1 061053Z 18002KT 21/19 A2999 RMK A01 T02110191  RH  088%=      5-min Rain = 0
KQU1 061054Z 17003KT 21/19 A2999 RMK A01 T02110191  RH  088%=      5-min Rain = 0
KQU1 061055Z 17003KT 21/19 A2999 RMK A01 T02110191  RH  088%=      5-min Rain = 0
KQU1 061056Z 17003KT 21/19 A2999 RMK A01 T02110191  RH  088%=      5-min Rain = 0
KQU1 061057Z 17002KT 21/19 A2999 RMK A01 T02110191  RH  088%=      5-min Rain = 0
KQU1 061058Z 17002KT 21/19 A2999 RMK A01 T02110191  RH  088%=      5-min Rain = 0
KQU1 061059Z 17002KT 21/19 A2999 RMK A01 T02100191  RH  088%=      5-min Rain = 0
KQU1 061100Z 18002KT 21/19 A2999 RMK A01 T02100191  RH  089%=      5-min Rain = 0
KQU1 061101Z 19002KT 21/19 A2999 RMK A01 T02100191  RH  089%=      5-min Rain = 0
KQU1 061102Z 17002KT 21/19 A2999 RMK A01 T02100191  RH  089%=      5-min Rain = 0
KQU1 061103Z 17002KT 21/19 A2999 RMK A01 T02100191  RH  089%=      5-min Rain = 0
KQU1 061104Z 17002KT 21/19 A2999 RMK A01 T02100191  RH  089%=      5-min Rain = 0
KQU1 061105Z 16002KT 21/19 A2999 RMK A01 T02100191  RH  089%=      5-min Rain = 0
KQU1 061106Z 16001KT 21/19 A2999 RMK A01 T02100191  RH  089%=      5-min Rain = 0
KQU1 061107Z 16002KT 21/19 A2999 RMK A01 T02100191  RH  089%=      5-min Rain = 0
KQU1 061108Z 17002KT 21/19 A2999 RMK A01 T02100191  RH  089%=      5-min Rain = 0
KQU1 061109Z 16002KT 21/19 A2999 RMK A01 T02100191  RH  089%=      5-min Rain = 0
KQU1 061110Z 16002KT 21/19 A2999 RMK A01 T02090191  RH  089%=      5-min Rain = 0
KQU1 061111Z 16003KT 21/19 A2999 RMK A01 T02090191  RH  089%=      5-min Rain = 0
KQU1 061112Z 16003KT 21/19 A2999 RMK A01 T02090191  RH  089%=      5-min Rain = 0
KQU1 061113Z 15003KT 21/19 A2999 RMK A01 T02090191  RH  089%=      5-min Rain = 0
KQU1 061114Z 16002KT 21/19 A2999 RMK A01 T02090190  RH  089%=      5-min Rain = 0
KQU1 061115Z 16003KT 21/19 A2999 RMK A01 T02090190  RH  089%=      5-min Rain = 0
KQU1 061116Z 16003KT 21/19 A2999 RMK A01 T02080190  RH  089%=      5-min Rain = 0
KQU1 061117Z 16003KT 21/19 A2999 RMK A01 T02080190  RH  089%=      5-min Rain = 0
KQU1 061118Z 16003KT 21/19 A2999 RMK A01 T02080190  RH  090%=      5-min Rain = 0
KQU1 061119Z 17004KT 21/19 A2999 RMK A01 T02070190  RH  090%=      5-min Rain = 0
KQU1 061120Z 16003KT 21/19 A2999 RMK A01 T02070190  RH  090%=      5-min Rain = 0
KQU1 061121Z 17003KT 21/19 A2999 RMK A01 T02070190  RH  090%=      5-min Rain = 0
KQU1 061122Z 17004KT 21/19 A2999 RMK A01 T02060190  RH  090%=      5-min Rain = 0
KQU1 061123Z 16004KT 21/19 A2999 RMK A01 T02060190  RH  090%=      5-min Rain = 0
KQU1 061124Z 17004KT 21/19 A2999 RMK A01 T02060190  RH  090%=      5-min Rain = 0
KQU1 061125Z 18005KT 21/19 A2999 RMK A01 T02060190  RH  091%=      5-min Rain = 0
KQU1 061126Z 17005KT 21/19 A2999 RMK A01 T02060190  RH  091%=      5-min Rain = 0
KQU1 061127Z 17005KT 21/19 A2999 RMK A01 T02060190  RH  090%=      5-min Rain = 0
KQU1 061128Z 16005KT 21/19 A2999 RMK A01 T02050189  RH  090%=      5-min Rain = 0
KQU1 061129Z 16005KT 21/19 A2999 RMK A01 T02050189  RH  091%=      5-min Rain = 0
KQU1 061130Z 16006KT 21/19 A2999 RMK A01 T02050190  RH  091%=      5-min Rain = 0
KQU1 061131Z 17006KT 21/19 A2999 RMK A01 T02050190  RH  091%=      5-min Rain = 0
KQU1 061132Z 17005KT 21/19 A2999 RMK A01 T02050190  RH  091%=      5-min Rain = 0
KQU1 061133Z 18005KT 21/19 A2999 RMK A01 T02050190  RH  091%=      5-min Rain = 0
KQU1 061134Z 18005KT 21/19 A2999 RMK A01 T02050190  RH  091%=      5-min Rain = 0
KQU1 061135Z 18005KT 21/19 A2999 RMK A01 T02050191  RH  091%=      5-min Rain = 0
KQU1 061136Z 18006KT 21/19 A2999 RMK A01 T02050191  RH  091%=      5-min Rain = 0
KQU1 061137Z 18006KT 21/19 A2999 RMK A01 T02060191  RH  091%=      5-min Rain = 0
KQU1 061138Z 17006KT 21/19 A2999 RMK A01 T02060191  RH  091%=      5-min Rain = 0
KQU1 061139Z 17007KT 21/19 A2999 RMK A01 T02060191  RH  091%=      5-min Rain = 0
KQU1 061140Z 17007KT 21/19 A2999 RMK A01 T02060191  RH  091%=      5-min Rain = 0
KQU1 061141Z 17007KT 21/19 A2999 RMK A01 T02060191  RH  092%=      5-min Rain = 0
KQU1 061142Z 17007KT 21/19 A2999 RMK A01 T02060192  RH  092%=      5-min Rain = 0
KQU1 061143Z 16006KT 21/19 A2999 RMK A01 T02060192  RH  092%=      5-min Rain = 0
KQU1 061144Z 16006KT 21/19 A2999 RMK A01 T02060192  RH  092%=      5-min Rain = 0
KQU1 061145Z 17005KT 21/19 A2999 RMK A01 T02060192  RH  092%=      5-min Rain = 0
KQU1 061146Z 17004KT 21/19 A2999 RMK A01 T02060191  RH  092%=      5-min Rain = 0
KQU1 061147Z 18004KT 21/19 A2999 RMK A01 T02050191  RH  092%=      5-min Rain = 0
KQU1 061148Z 18004KT 21/19 A2999 RMK A01 T02050191  RH  092%=      5-min Rain = 0
KQU1 061149Z 18004KT 21/19 A2999 RMK A01 T02050191  RH  091%=      5-min Rain = 0
KQU1 061150Z 18004KT 21/19 A2999 RMK A01 T02050191  RH  091%=      5-min Rain = 0
KQU1 061151Z 18003KT 21/19 A2999 RMK A01 T02050191  RH  091%=      5-min Rain = 0
KQU1 061152Z 18003KT 21/19 A2999 RMK A01 T02050191  RH  091%=      5-min Rain = 0
KQU1 061153Z 18003KT 21/19 A2999 RMK A01 T02050191  RH  091%=      5-min Rain = 0
KQU1 061154Z 19003KT 21/19 A2999 RMK A01 T02050191  RH  091%=      5-min Rain = 0
KQU1 061155Z 19003KT 21/19 A2999 RMK A01 T02050191  RH  091%=      5-min Rain = 0
KQU1 061156Z 20002KT 21/19 A2999 RMK A01 T02050190  RH  091%=      5-min Rain = 0
KQU1 061157Z 22001KT 21/19 A2999 RMK A01 T02050189  RH  091%=      5-min Rain = 0
KQU1 061158Z 23002KT 20/19 A2999 RMK A01 T02040188  RH  091%=      5-min Rain = 0
KQU1 061159Z 23002KT 20/19 A30 RMK A01 T02030187  RH  090%=      5-min Rain = 0
KQU1 061200Z 23003KT 20/19 A30 RMK A01 T02030187  RH  091%=      5-min Rain = 0
KQU1 061201Z 23003KT 20/19 A30 RMK A01 T02020187  RH  091%=      5-min Rain = 0
KQU1 061202Z 24003KT 20/19 A30 RMK A01 T02020186  RH  091%=      5-min Rain = 0
KQU1 061203Z 24002KT 20/19 A30 RMK A01 T02010186  RH  091%=      5-min Rain = 0
KQU1 061204Z 24003KT 20/19 A30 RMK A01 T02010187  RH  091%=      5-min Rain = 0
KQU1 061205Z 24003KT 20/19 A30 RMK A01 T02010187  RH  091%=      5-min Rain = 0
KQU1 061206Z 24003KT 20/19 A30 RMK A01 T02010187  RH  091%=      5-min Rain = 0
KQU1 061207Z 23003KT 20/19 A30 RMK A01 T02010187  RH  092%=      5-min Rain = 0
KQU1 061208Z 22003KT 20/19 A30 RMK A01 T02010187  RH  092%=      5-min Rain = 0
KQU1 061209Z 22004KT 20/19 A30 RMK A01 T02010187  RH  092%=      5-min Rain = 0
KQU1 061210Z 21004KT 20/19 A30 RMK A01 T02010187  RH  092%=      5-min Rain = 0
KQU1 061211Z 20004KT 20/19 A30 RMK A01 T02010187  RH  092%=      5-min Rain = 0
KQU1 061212Z 20004KT 20/19 A30 RMK A01 T02010187  RH  092%=      5-min Rain = 0
KQU1 061213Z 20004KT 20/19 A30 RMK A01 T02010188  RH  092%=      5-min Rain = 0
KQU1 061214Z 20004KT 20/19 A30 RMK A01 T02010188  RH  092%=      5-min Rain = 0
KQU1 061215Z 20004KT 20/19 A30 RMK A01 T02020188  RH  092%=      5-min Rain = 0
KQU1 061216Z 21004KT 20/19 A2999 RMK A01 T02020188  RH  092%=      5-min Rain = 0
KQU1 061217Z 21005KT 20/19 A2999 RMK A01 T02020188  RH  092%=      5-min Rain = 0
KQU1 061218Z 20004KT 20/19 A2999 RMK A01 T02020188  RH  092%=      5-min Rain = 0
KQU1 061219Z 20005KT 20/19 A2999 RMK A01 T02020188  RH  092%=      5-min Rain = 0
KQU1 061220Z 20005KT 20/19 A2999 RMK A01 T02020188  RH  092%=      5-min Rain = 0
KQU1 061221Z 20004KT 20/19 A2999 RMK A01 T02020188  RH  092%=      5-min Rain = 0
KQU1 061222Z 20005KT 20/19 A2999 RMK A01 T02020188  RH  091%=      5-min Rain = 0
KQU1 061223Z 20005KT 20/19 A2999 RMK A01 T02020187  RH  091%=      5-min Rain = 0
KQU1 061224Z 21005KT 20/19 A2999 RMK A01 T02020187  RH  091%=      5-min Rain = 0
KQU1 061225Z 21005KT 20/19 A2999 RMK A01 T02020187  RH  091%=      5-min Rain = 0
KQU1 061226Z 21006KT 20/19 A2999 RMK A01 T02020187  RH  091%=      5-min Rain = 0
KQU1 061227Z 20006KT 20/19 A2999 RMK A01 T02020187  RH  091%=      5-min Rain = 0
KQU1 061228Z 20006KT 20/19 A2999 RMK A01 T02020187  RH  091%=      5-min Rain = 0
KQU1 061229Z 20006KT 20/19 A2999 RMK A01 T02020187  RH  091%=      5-min Rain = 0
KQU1 061230Z 20006KT 20/19 A2999 RMK A01 T02020187  RH  091%=      5-min Rain = 0
KQU1 061231Z 20006KT 20/19 A2999 RMK A01 T02020188  RH  091%=      5-min Rain = 0
KQU1 061232Z 20006KT 20/19 A2999 RMK A01 T02020188  RH  091%=      5-min Rain = 0
KQU1 061233Z 20006KT 20/19 A2999 RMK A01 T02030188  RH  091%=      5-min Rain = 0
KQU1 061234Z 20006KT 20/19 A2999 RMK A01 T02030188  RH  091%=      5-min Rain = 0
KQU1 061235Z 20006KT 20/19 A2999 RMK A01 T02030188  RH  091%=      5-min Rain = 0
KQU1 061236Z 20006KT 20/19 A2999 RMK A01 T02030188  RH  091%=      5-min Rain = 0
KQU1 061237Z 19006KT 20/19 A2999 RMK A01 T02030188  RH  091%=      5-min Rain = 0
KQU1 061238Z 19006KT 20/19 A2999 RMK A01 T02030188  RH  091%=      5-min Rain = 0
KQU1 061239Z 19006KT 20/19 A2999 RMK A01 T02030188  RH  091%=      5-min Rain = 0
KQU1 061240Z 18006KT 20/19 A2999 RMK A01 T02030188  RH  091%=      5-min Rain = 0
KQU1 061241Z 18006KT 20/19 A2999 RMK A01 T02040188  RH  091%=      5-min Rain = 0
KQU1 061242Z 18006KT 20/19 A2999 RMK A01 T02040188  RH  091%=      5-min Rain = 0
KQU1 061243Z 18006KT 20/19 A2999 RMK A01 T02040189  RH  091%=      5-min Rain = 0
KQU1 061244Z 19006KT 20/19 A2999 RMK A01 T02040189  RH  091%=      5-min Rain = 0
KQU1 061245Z 18006KT 20/19 A2999 RMK A01 T02040190  RH  091%=      5-min Rain = 0
KQU1 061246Z 19005KT 21/19 A2999 RMK A01 T02050190  RH  091%=      5-min Rain = 0
KQU1 061247Z 19005KT 21/19 A2999 RMK A01 T02060191  RH  091%=      5-min Rain = 0
KQU1 061248Z 19006KT 21/19 A2999 RMK A01 T02060191  RH  091%=      5-min Rain = 0
KQU1 061249Z 19005KT 21/19 A2999 RMK A01 T02070191  RH  091%=      5-min Rain = 0
KQU1 061250Z 18006KT 21/19 A2999 RMK A01 T02070191  RH  091%=      5-min Rain = 0
KQU1 061251Z 18006KT 21/19 A2999 RMK A01 T02070191  RH  091%=      5-min Rain = 0
KQU1 061252Z 18006KT 21/19 A2999 RMK A01 T02070191  RH  090%=      5-min Rain = 0
KQU1 061253Z 18006KT 21/19 A2999 RMK A01 T02070191  RH  090%=      5-min Rain = 0
KQU1 061254Z 18006KT 21/19 A2999 RMK A01 T02080191  RH  090%=      5-min Rain = 0
KQU1 061255Z 18006KT 21/19 A2999 RMK A01 T02080192  RH  090%=      5-min Rain = 0
KQU1 061256Z 18006KT 21/19 A2999 RMK A01 T02080192  RH  090%=      5-min Rain = 0
KQU1 061257Z 18006KT 21/19 A2999 RMK A01 T02090192  RH  090%=      5-min Rain = 0
KQU1 061258Z 18006KT 21/19 A2999 RMK A01 T02090192  RH  090%=      5-min Rain = 0
KQU1 061259Z 18007KT 21/19 A2999 RMK A01 T02090192  RH  090%=      5-min Rain = 0
KQU1 061300Z 18006KT 21/19 A2999 RMK A01 T02090192  RH  090%=      5-min Rain = 0
KQU1 061301Z 18007KT 21/19 A2999 RMK A01 T02100192  RH  089%=      5-min Rain = 0
KQU1 061302Z 18006KT 21/19 A2999 RMK A01 T02100192  RH  089%=      5-min Rain = 0
KQU1 061303Z 18007KT 21/19 A2999 RMK A01 T02100192  RH  089%=      5-min Rain = 0
KQU1 061304Z 18007KT 21/19 A2999 RMK A01 T02110192  RH  089%=      5-min Rain = 0
KQU1 061305Z 18006KT 21/19 A2999 RMK A01 T02110192  RH  089%=      5-min Rain = 0
KQU1 061306Z 18006KT 21/19 A2999 RMK A01 T02120193  RH  089%=      5-min Rain = 0
KQU1 061307Z 18006KT 21/19 A2999 RMK A01 T02120192  RH  088%=      5-min Rain = 0
KQU1 061308Z 19007KT 21/19 A2999 RMK A01 T02130193  RH  088%=      5-min Rain = 0
KQU1 061309Z 19006KT 21/19 A2998 RMK A01 T02130193  RH  088%=      5-min Rain = 0
KQU1 061310Z 19006KT 21/19 A2998 RMK A01 T02140194  RH  088%=      5-min Rain = 0
KQU1 061311Z 19007KT 22/19 A2998 RMK A01 T02150193  RH  087%=      5-min Rain = 0
KQU1 061312Z 18007KT 22/19 A2998 RMK A01 T02150193  RH  087%=      5-min Rain = 0
KQU1 061313Z 19006KT 22/19 A2998 RMK A01 T02160193  RH  087%=      5-min Rain = 0
KQU1 061314Z 18007KT 22/19 A2998 RMK A01 T02160194  RH  087%=      5-min Rain = 0
KQU1 061315Z 18007KT 22/19 A2998 RMK A01 T02170194  RH  087%=      5-min Rain = 0
KQU1 061316Z 19007KT 22/20 A2998 RMK A01 T02180195  RH  086%=      5-min Rain = 0
KQU1 061317Z 19006KT 22/19 A2998 RMK A01 T02200194  RH  085%=      5-min Rain = 0
KQU1 061318Z 18007KT 22/20 A2998 RMK A01 T02220195  RH  085%=      5-min Rain = 0
KQU1 061319Z 18007KT 22/20 A2998 RMK A01 T02240195  RH  084%=      5-min Rain = 0
KQU1 061320Z 18007KT 23/19 A2998 RMK A01 T02260194  RH  082%=      5-min Rain = 0
KQU1 061321Z 18007KT 23/19 A2998 RMK A01 T02270194  RH  081%=      5-min Rain = 0
KQU1 061322Z 18007KT 23/19 A2998 RMK A01 T02280194  RH  081%=      5-min Rain = 0
KQU1 061323Z 19007KT 23/19 A2998 RMK A01 T02300192  RH  079%=      5-min Rain = 0
KQU1 061324Z 19006KT 23/19 A2998 RMK A01 T02310193  RH  079%=      5-min Rain = 0
KQU1 061325Z 18007KT 23/19 A2998 RMK A01 T02330193  RH  078%=      5-min Rain = 0
KQU1 061326Z 19008KT 23/19 A2998 RMK A01 T02340192  RH  077%=      5-min Rain = 0
KQU1 061327Z 18008KT 23/19 A2998 RMK A01 T02340192  RH  077%=      5-min Rain = 0
KQU1 061328Z 18008KT 23/19 A2998 RMK A01 T02340192  RH  077%=      5-min Rain = 0
KQU1 061329Z 18008KT 23/19 A2998 RMK A01 T02340192  RH  077%=      5-min Rain = 0
KQU1 061330Z 18007KT 23/19 A2998 RMK A01 T02340193  RH  078%=      5-min Rain = 0
KQU1 061331Z 19007KT 23/19 A2998 RMK A01 T02340192  RH  077%=      5-min Rain = 0
KQU1 061332Z 20007KT 24/19 A2998 RMK A01 T02350191  RH  076%=      5-min Rain = 0
KQU1 061333Z 20008KT 24/19 A2998 RMK A01 T02360189  RH  075%=      5-min Rain = 0
KQU1 061334Z 20009KT 24/19 A2998 RMK A01 T02370188  RH  074%=      5-min Rain = 0
KQU1 061335Z 20007KT 24/19 A2998 RMK A01 T02380188  RH  074%=      5-min Rain = 0
KQU1 061336Z 19008KT 24/19 A2998 RMK A01 T02390188  RH  073%=      5-min Rain = 0
KQU1 061337Z 19007KT 24/19 A2998 RMK A01 T02400187  RH  072%=      5-min Rain = 0
KQU1 061338Z 20007KT 24/19 A2998 RMK A01 T02400186  RH  072%=      5-min Rain = 0
KQU1 061339Z 19009KT 24/19 A2998 RMK A01 T02410186  RH  071%=      5-min Rain = 0
KQU1 061340Z 19009KT 24/19 A2998 RMK A01 T02420186  RH  071%=      5-min Rain = 0
KQU1 061341Z 19010KT 24/19 A2998 RMK A01 T02430185  RH  070%=      5-min Rain = 0
KQU1 061342Z 19009KT 24/19 A2998 RMK A01 T02430185  RH  070%=      5-min Rain = 0
KQU1 061343Z 19008KT 25/19 A2998 RMK A01 T02450185  RH  069%=      5-min Rain = 0
KQU1 061344Z 20008KT 25/19 A2998 RMK A01 T02460185  RH  069%=      5-min Rain = 0
KQU1 061345Z 19009KT 25/18 A2999 RMK A01 T02470184  RH  068%=      5-min Rain = 0
KQU1 061346Z 20010KT 25/18 A2999 RMK A01 T02480184  RH  068%=      5-min Rain = 0
KQU1 061347Z 20011KT 25/18 A2999 RMK A01 T02480183  RH  067%=      5-min Rain = 0
KQU1 061348Z 19010KT 25/18 A2999 RMK A01 T02490183  RH  066%=      5-min Rain = 0
KQU1 061349Z 20011KT 25/18 A2999 RMK A01 T02510181  RH  065%=      5-min Rain = 0
KQU1 061350Z 20009KT 25/18 A2999 RMK A01 T02530181  RH  064%=      5-min Rain = 0
KQU1 061351Z 20011KT 26/18 A2999 RMK A01 T02550180  RH  063%=      5-min Rain = 0
KQU1 061352Z 19012KT 26/18 A2999 RMK A01 T02550180  RH  063%=      5-min Rain = 0
KQU1 061353Z 19011KT 26/18 A2999 RMK A01 T02550181  RH  064%=      5-min Rain = 0
KQU1 061354Z 20011KT 26/18 A2999 RMK A01 T02550180  RH  063%=      5-min Rain = 0
KQU1 061355Z 20012KT 26/18 A2999 RMK A01 T02550179  RH  063%=      5-min Rain = 0
KQU1 061356Z 19011KT 26/18 A2999 RMK A01 T02550179  RH  063%=      5-min Rain = 0
KQU1 061357Z 19013KT 26/18 A2999 RMK A01 T02550180  RH  063%=      5-min Rain = 0
KQU1 061358Z 19011KT 26/18 A2999 RMK A01 T02550180  RH  063%=      5-min Rain = 0
KQU1 061359Z 19010KT 26/18 A2999 RMK A01 T02550181  RH  064%=      5-min Rain = 0
KQU1 061400Z 20010KT 26/18 A2998 RMK A01 T02550180  RH  063%=      5-min Rain = 0
KQU1 061401Z 20012KT 26/18 A2998 RMK A01 T02560177  RH  061%=      5-min Rain = 0
KQU1 061402Z 21014KT 26/17 A2998 RMK A01 T02590168  RH  057%=      5-min Rain = 0
KQU1 061403Z 20013KT 26/16 A2998 RMK A01 T02630163  RH  054%=      5-min Rain = 0
KQU1 061404Z 20016KT 27/16 A2998 RMK A01 T02660158  RH  052%=      5-min Rain = 0
KQU1 061405Z 21015G23KT 27/16 A2998 RMK A01 T02690157  RH  050%=      5-min Rain = 0
KQU1 061406Z 21021KT 27/15 A2998 RMK A01 T02720152  RH  048%=      5-min Rain = 0
KQU1 061407Z 20015KT 27/15 A2998 RMK A01 T02730152  RH  048%=      5-min Rain = 0
KQU1 061408Z 21016KT 28/15 A2998 RMK A01 T02750152  RH  047%=      5-min Rain = 0
KQU1 061409Z 21017G22KT 28/15 A2998 RMK A01 T02770152  RH  047%=      5-min Rain = 0
KQU1 061410Z 21019KT 28/15 A2998 RMK A01 T02790151  RH  046%=      5-min Rain = 0
KQU1 061411Z 21016KT 28/15 A2998 RMK A01 T02810151  RH  045%=      5-min Rain = 0
KQU1 061412Z 21016G21KT 28/15 A2998 RMK A01 T02840152  RH  045%=      5-min Rain = 0
KQU1 061413Z 21020KT 29/15 A2998 RMK A01 T02850149  RH  043%=      5-min Rain = 0
KQU1 061414Z 21016KT 29/15 A2998 RMK A01 T02860150  RH  044%=      5-min Rain = 0
KQU1 061415Z 21019KT 29/15 A2998 RMK A01 T02870150  RH  043%=      5-min Rain = 0
KQU1 061416Z 21017KT 29/15 A2998 RMK A01 T02880150  RH  043%=      5-min Rain = 0
KQU1 061417Z 22017KT 29/15 A2998 RMK A01 T02880150  RH  043%=      5-min Rain = 0
KQU1 061418Z 22018KT 29/15 A2998 RMK A01 T02890150  RH  043%=      5-min Rain = 0
KQU1 061419Z 21015KT 29/15 A2998 RMK A01 T02910151  RH  043%=      5-min Rain = 0
KQU1 061420Z 22017KT 29/15 A2998 RMK A01 T02930150  RH  042%=      5-min Rain = 0
KQU1 061421Z 23019KT 29/15 A2998 RMK A01 T02930148  RH  041%=      5-min Rain = 0
KQU1 061422Z 21017KT 29/15 A2998 RMK A01 T02910149  RH  042%=      5-min Rain = 0
KQU1 061423Z 22015KT 29/15 A2998 RMK A01 T02890150  RH  043%=      5-min Rain = 0
KQU1 061424Z 21015KT 29/15 A2998 RMK A01 T02890150  RH  043%=      5-min Rain = 0
KQU1 061425Z 21016KT 29/15 A2998 RMK A01 T02890149  RH  043%=      5-min Rain = 0
KQU1 061426Z 22014KT 29/15 A2998 RMK A01 T02890151  RH  043%=      5-min Rain = 0
KQU1 061427Z 22016G23KT 29/15 A2998 RMK A01 T02910150  RH  042%=      5-min Rain = 0
KQU1 061428Z 22021KT 29/15 A2998 RMK A01 T02920149  RH  042%=      5-min Rain = 0
KQU1 061429Z 21019KT 29/15 A2998 RMK A01 T02940149  RH  041%=      5-min Rain = 0
KQU1 061430Z 21020G26KT 30/15 A2998 RMK A01 T02960149  RH  041%=      5-min Rain = 0
KQU1 061431Z 22023KT 30/15 A2998 RMK A01 T02970148  RH  040%=      5-min Rain = 0
KQU1 061432Z 21021KT 30/15 A2998 RMK A01 T02980148  RH  040%=      5-min Rain = 0
KQU1 061433Z 22019KT 30/15 A2998 RMK A01 T02980148  RH  040%=      5-min Rain = 0
KQU1 061434Z 21022KT 30/15 A2998 RMK A01 T02980148  RH  040%=      5-min Rain = 0
KQU1 061435Z 22022KT 30/15 A2998 RMK A01 T02960148  RH  040%=      5-min Rain = 0
KQU1 061436Z 22021KT 30/15 A2998 RMK A01 T02950148  RH  041%=      5-min Rain = 0
KQU1 061437Z 22019KT 29/15 A2998 RMK A01 T02940149  RH  041%=      5-min Rain = 0
KQU1 061438Z 22020KT 29/15 A2998 RMK A01 T02940149  RH  041%=      5-min Rain = 0
KQU1 061439Z 22019KT 29/15 A2998 RMK A01 T02940148  RH  041%=      5-min Rain = 0
KQU1 061440Z 22018KT 29/15 A2998 RMK A01 T02930149  RH  041%=      5-min Rain = 0
KQU1 061441Z 22020G25KT 29/15 A2998 RMK A01 T02930149  RH  041%=      5-min Rain = 0
KQU1 061442Z 22019G26KT 29/15 A2998 RMK A01 T02930148  RH  041%=      5-min Rain = 0
KQU1 061443Z 22020KT 29/15 A2998 RMK A01 T02920148  RH  041%=      5-min Rain = 0
KQU1 061444Z 22020KT 29/15 A2998 RMK A01 T02910148  RH  042%=      5-min Rain = 0
KQU1 061445Z 22020KT 29/15 A2998 RMK A01 T02910148  RH  042%=      5-min Rain = 0
KQU1 061446Z 22019G24KT 29/15 A2998 RMK A01 T02900148  RH  042%=      5-min Rain = 0
KQU1 061447Z 22022KT 29/15 A2998 RMK A01 T02890148  RH  042%=      5-min Rain = 0
KQU1 061448Z 22021KT 29/15 A2998 RMK A01 T02880148  RH  043%=      5-min Rain = 0
KQU1 061449Z 22022G27KT 29/15 A2998 RMK A01 T02860148  RH  043%=      5-min Rain = 0
KQU1 061450Z 22019KT 29/15 A2998 RMK A01 T02850148  RH  043%=      5-min Rain = 0
KQU1 061451Z 22019G26KT 29/15 A2998 RMK A01 T02850148  RH  043%=      5-min Rain = 0
KQU1 061452Z 22021KT 28/15 A2998 RMK A01 T02840148  RH  043%=      5-min Rain = 0
KQU1 061453Z 22021KT 28/15 A2998 RMK A01 T02840148  RH  043%=      5-min Rain = 0
KQU1 061454Z 22020KT 28/15 A2998 RMK A01 T02830148  RH  044%=      5-min Rain = 0
KQU1 061455Z 22020G25KT 28/15 A2998 RMK A01 T02830148  RH  044%=      5-min Rain = 0
KQU1 061456Z 22022KT 28/15 A2998 RMK A01 T02830148  RH  044%=      5-min Rain = 0
KQU1 061457Z 22021KT 28/15 A2998 RMK A01 T02820148  RH  044%=      5-min Rain = 0
KQU1 061458Z 22017KT 28/15 A2998 RMK A01 T02820148  RH  044%=      5-min Rain = 0
KQU1 061459Z 22018KT 28/15 A2998 RMK A01 T02820149  RH  044%=      5-min Rain = 0
KQU1 061500Z 21016G21KT 28/15 A2998 RMK A01 T02830149  RH  044%=      5-min Rain = 0
KQU1 061501Z 22020KT 28/15 A2998 RMK A01 T02830148  RH  044%=      5-min Rain = 0
KQU1 061502Z 21017KT 28/15 A2998 RMK A01 T02820149  RH  044%=      5-min Rain = 0
KQU1 061503Z 21016KT 28/15 A2998 RMK A01 T02830149  RH  044%=      5-min Rain = 0
KQU1 061504Z 22015KT 28/15 A2998 RMK A01 T02830150  RH  044%=      5-min Rain = 0
KQU1 061505Z 21017KT 28/15 A2998 RMK A01 T02830150  RH  044%=      5-min Rain = 0
KQU1 061506Z 22017KT 28/15 A2998 RMK A01 T02830149  RH  044%=      5-min Rain = 0
KQU1 061507Z 22018KT 28/15 A2998 RMK A01 T02830149  RH  044%=      5-min Rain = 0
KQU1 061508Z 22019KT 28/15 A2998 RMK A01 T02830149  RH  044%=      5-min Rain = 0
KQU1 061509Z 21017KT 28/15 A2998 RMK A01 T02820149  RH  044%=      5-min Rain = 0
KQU1 061510Z 20017KT 28/15 A2998 RMK A01 T02830150  RH  044%=      5-min Rain = 0
KQU1 061511Z 21016KT 28/15 A2998 RMK A01 T02830150  RH  044%=      5-min Rain = 0
KQU1 061512Z 21018KT 28/15 A2999 RMK A01 T02830149  RH  044%=      5-min Rain = 0
KQU1 061513Z 21014KT 28/15 A2999 RMK A01 T02830150  RH  044%=      5-min Rain = 0
KQU1 061514Z 21019KT 28/15 A2999 RMK A01 T02830149  RH  044%=      5-min Rain = 0
KQU1 061515Z 22020KT 28/15 A2999 RMK A01 T02830149  RH  044%=      5-min Rain = 0
KQU1 061516Z 22018KT 28/15 A2999 RMK A01 T02820149  RH  044%=      5-min Rain = 0
KQU1 061517Z 22017KT 28/15 A2999 RMK A01 T02830149  RH  044%=      5-min Rain = 0
KQU1 061518Z 21017KT 28/15 A2999 RMK A01 T02830150  RH  044%=      5-min Rain = 0
KQU1 061519Z 21019KT 28/15 A2999 RMK A01 T02830150  RH  044%=      5-min Rain = 0
KQU1 061520Z 21020KT 28/15 A2999 RMK A01 T02830149  RH  044%=      5-min Rain = 0
KQU1 061521Z 20020KT 28/15 A2999 RMK A01 T02830150  RH  044%=      5-min Rain = 0
KQU1 061522Z 21019KT 28/15 A2999 RMK A01 T02830149  RH  044%=      5-min Rain = 0
KQU1 061523Z 21020KT 28/15 A2999 RMK A01 T02830150  RH  044%=      5-min Rain = 0
KQU1 061524Z 21020KT 28/15 A2999 RMK A01 T02830150  RH  044%=      5-min Rain = 0
KQU1 061525Z 21019KT 28/15 A2999 RMK A01 T02830150  RH  044%=      5-min Rain = 0
KQU1 061526Z 21021G26KT 28/15 A2999 RMK A01 T02830150  RH  044%=      5-min Rain = 0
KQU1 061527Z 21019KT 28/15 A2999 RMK A01 T02830150  RH  044%=      5-min Rain = 0
KQU1 061528Z 21020KT 28/15 A2999 RMK A01 T02830150  RH  044%=      5-min Rain = 0
KQU1 061529Z 22019KT 28/15 A2999 RMK A01 T02830150  RH  044%=      5-min Rain = 0
KQU1 061530Z 21020KT 28/15 A2999 RMK A01 T02830150  RH  044%=      5-min Rain = 0
KQU1 061531Z 21023KT 28/15 A2999 RMK A01 T02830149  RH  044%=      5-min Rain = 0
KQU1 061532Z 22022KT 28/15 A2999 RMK A01 T02840150  RH  044%=      5-min Rain = 0
KQU1 061533Z 21020KT 28/15 A2999 RMK A01 T02840150  RH  044%=      5-min Rain = 0
KQU1 061534Z 21022KT 28/15 A2999 RMK A01 T02840150  RH  044%=      5-min Rain = 0
KQU1 061535Z 21018G23KT 28/15 A2999 RMK A01 T02840150  RH  044%=      5-min Rain = 0
KQU1 061536Z 21019G25KT 29/15 A2999 RMK A01 T02850150  RH  044%=      5-min Rain = 0
KQU1 061537Z 21018KT 29/15 A2999 RMK A01 T02850150  RH  044%=      5-min Rain = 0
KQU1 061538Z 21018KT 29/15 A2999 RMK A01 T02860150  RH  043%=      5-min Rain = 0
KQU1 061539Z 21020KT 29/15 A2999 RMK A01 T02860149  RH  043%=      5-min Rain = 0
KQU1 061540Z 22020G25KT 29/15 A2999 RMK A01 T02870149  RH  043%=      5-min Rain = 0
KQU1 061541Z 22021KT 29/15 A2999 RMK A01 T02870148  RH  043%=      5-min Rain = 0
KQU1 061542Z 22021G26KT 29/15 A2999 RMK A01 T02880149  RH  043%=      5-min Rain = 0
KQU1 061543Z 22020KT 29/15 A2999 RMK A01 T02890149  RH  042%=      5-min Rain = 0
KQU1 061544Z 22019KT 29/15 A2999 RMK A01 T02910149  RH  042%=      5-min Rain = 0
KQU1 061545Z 22019KT 29/15 A2999 RMK A01 T02910149  RH  042%=      5-min Rain = 0
KQU1 061546Z 22017KT 29/15 A2999 RMK A01 T02920150  RH  042%=      5-min Rain = 0
KQU1 061547Z 22016KT 29/15 A2999 RMK A01 T02940150  RH  042%=      5-min Rain = 0
KQU1 061548Z 21016KT 30/15 A2999 RMK A01 T02950150  RH  041%=      5-min Rain = 0
KQU1 061549Z 21019KT 30/15 A2999 RMK A01 T02960148  RH  041%=      5-min Rain = 0
KQU1 061550Z 22016KT 30/15 A2999 RMK A01 T02960149  RH  041%=      5-min Rain = 0
KQU1 061551Z 23016KT 30/15 A2999 RMK A01 T02980149  RH  040%=      5-min Rain = 0
KQU1 061552Z 22014KT 30/15 A2999 RMK A01 T03000150  RH  040%=      5-min Rain = 0
KQU1 061553Z 21014KT 30/15 A2999 RMK A01 T03010150  RH  040%=      5-min Rain = 0
KQU1 061554Z 22013KT 30/15 A30 RMK A01 T03010150  RH  040%=      5-min Rain = 0
KQU1 061555Z 21014KT 30/15 A2999 RMK A01 T03010149  RH  040%=      5-min Rain = 0
KQU1 061556Z 21016KT 30/15 A2999 RMK A01 T03010148  RH  039%=      5-min Rain = 0
KQU1 061557Z 21016KT 30/15 A2999 RMK A01 T03010148  RH  039%=      5-min Rain = 0
KQU1 061558Z 21017KT 30/15 A2999 RMK A01 T03010147  RH  039%=      5-min Rain = 0
KQU1 061559Z 20015KT 30/15 A2999 RMK A01 T03010147  RH  039%=      5-min Rain = 0
KQU1 061600Z 20020KT 30/15 A2999 RMK A01 T03010145  RH  039%=      5-min Rain = 0
KQU1 061601Z 20017KT 30/15 A2999 RMK A01 T03010146  RH  039%=      5-min Rain = 0
KQU1 061602Z 20016KT 30/15 A2999 RMK A01 T03010146  RH  039%=      5-min Rain = 0
KQU1 061603Z 20017KT 30/15 A2999 RMK A01 T03010145  RH  038%=      5-min Rain = 0
KQU1 061604Z 20019KT 30/14 A2999 RMK A01 T03010142  RH  038%=      5-min Rain = 0
KQU1 061605Z 20017KT 30/14 A2999 RMK A01 T03010141  RH  038%=      5-min Rain = 0
KQU1 061606Z 21017KT 30/14 A2999 RMK A01 T03010142  RH  038%=      5-min Rain = 0
KQU1 061607Z 21014G19KT 30/14 A2999 RMK A01 T03010143  RH  038%=      5-min Rain = 0
KQU1 061608Z 20018KT 30/14 A2999 RMK A01 T03020141  RH  037%=      5-min Rain = 0
KQU1 061609Z 20019KT 30/14 A2999 RMK A01 T03010139  RH  037%=      5-min Rain = 0
KQU1 061610Z 21017KT 30/14 A2999 RMK A01 T03010139  RH  037%=      5-min Rain = 0
KQU1 061611Z 21017KT 30/14 A2999 RMK A01 T03020138  RH  037%=      5-min Rain = 0
KQU1 061612Z 21017KT 30/14 A2999 RMK A01 T03010139  RH  037%=      5-min Rain = 0
KQU1 061613Z 22017KT 30/14 A2999 RMK A01 T03000141  RH  038%=      5-min Rain = 0
KQU1 061614Z 21019KT 30/14 A2999 RMK A01 T02990140  RH  038%=      5-min Rain = 0
KQU1 061615Z 21018KT 30/14 A2999 RMK A01 T02990139  RH  038%=      5-min Rain = 0
KQU1 061616Z 21015G20KT 30/14 A2999 RMK A01 T02980140  RH  038%=      5-min Rain = 0
KQU1 061617Z 20014KT 30/14 A2999 RMK A01 T02990139  RH  038%=      5-min Rain = 0
KQU1 061618Z 21017KT 30/14 A2999 RMK A01 T02990138  RH  037%=      5-min Rain = 0
KQU1 061619Z 21018KT 30/14 A2999 RMK A01 T02990136  RH  037%=      5-min Rain = 0
KQU1 061620Z 21019KT 30/14 A2999 RMK A01 T02980135  RH  037%=      5-min Rain = 0
KQU1 061621Z 21019KT 30/14 A2999 RMK A01 T02970135  RH  037%=      5-min Rain = 0
KQU1 061622Z 21019KT 30/14 A2999 RMK A01 T02970136  RH  037%=      5-min Rain = 0
KQU1 061623Z 21015KT 30/14 A30 RMK A01 T02980137  RH  038%=      5-min Rain = 0
KQU1 061624Z 21016KT 30/14 A30 RMK A01 T02980138  RH  037%=      5-min Rain = 0
KQU1 061625Z 21017KT 30/14 A30 RMK A01 T02980137  RH  037%=      5-min Rain = 0
KQU1 061626Z 20016KT 30/14 A30 RMK A01 T02980137  RH  037%=      5-min Rain = 0
KQU1 061627Z 21015KT 30/14 A30 RMK A01 T02980135  RH  037%=      5-min Rain = 0
KQU1 061628Z 21014KT 30/14 A30 RMK A01 T02990136  RH  037%=      5-min Rain = 0
KQU1 061629Z 21015G21KT 30/14 A30 RMK A01 T03000135  RH  036%=      5-min Rain = 0
KQU1 061630Z 21017KT 30/13 A30 RMK A01 T03000134  RH  036%=      5-min Rain = 0
KQU1 061631Z 21018KT 30/13 A30 RMK A01 T03000134  RH  036%=      5-min Rain = 0
KQU1 061632Z 21014KT 30/14 A30 RMK A01 T02990136  RH  037%=      5-min Rain = 0
KQU1 061633Z 21015KT 30/14 A30 RMK A01 T03000136  RH  037%=      5-min Rain = 0
KQU1 061634Z 21016KT 30/14 A30 RMK A01 T03000135  RH  036%=      5-min Rain = 0
KQU1 061635Z 22017KT 30/14 A30 RMK A01 T02990135  RH  036%=      5-min Rain = 0
KQU1 061636Z 21014KT 30/14 A30 RMK A01 T02990136  RH  037%=      5-min Rain = 0
KQU1 061637Z 22012KT 30/14 A30 RMK A01 T03000137  RH  037%=      5-min Rain = 0
KQU1 061638Z 21013KT 30/14 A30 RMK A01 T03010138  RH  037%=      5-min Rain = 0
KQU1 061639Z 21014KT 30/14 A30 RMK A01 T03010138  RH  037%=      5-min Rain = 0
KQU1 061640Z 21013KT 30/14 A30 RMK A01 T03010138  RH  037%=      5-min Rain = 0
KQU1 061641Z 21012KT 30/14 A30 RMK A01 T03020140  RH  037%=      5-min Rain = 0
KQU1 061642Z 21013KT 30/14 A30 RMK A01 T03030139  RH  037%=      5-min Rain = 0
KQU1 061643Z 22011KT 30/14 A30 RMK A01 T03030140  RH  037%=      5-min Rain = 0
KQU1 061644Z 22012KT 30/14 A30 RMK A01 T03040140  RH  037%=      5-min Rain = 0
KQU1 061645Z 22012KT 31/14 A30 RMK A01 T03050140  RH  037%=      5-min Rain = 0
KQU1 061646Z 21012KT 31/14 A30 RMK A01 T03060141  RH  036%=      5-min Rain = 0
KQU1 061647Z 21014KT 31/14 A30 RMK A01 T03060139  RH  036%=      5-min Rain = 0
KQU1 061648Z 21014KT 31/14 A30 RMK A01 T03060140  RH  036%=      5-min Rain = 0
KQU1 061649Z 21013KT 31/14 A30 RMK A01 T03060140  RH  036%=      5-min Rain = 0
KQU1 061650Z 20013KT 31/14 A30 RMK A01 T03070140  RH  036%=      5-min Rain = 0
KQU1 061651Z 22014KT 31/14 A30 RMK A01 T03070135  RH  035%=      5-min Rain = 0
KQU1 061652Z 21011KT 31/14 A30 RMK A01 T03080136  RH  035%=      5-min Rain = 0
KQU1 061653Z 22015KT 31/13 A30 RMK A01 T03090133  RH  034%=      5-min Rain = 0
KQU1 061654Z 22017KT 31/13 A30 RMK A01 T03090133  RH  034%=      5-min Rain = 0
KQU1 061655Z 22012KT 31/14 A30 RMK A01 T03090135  RH  035%=      5-min Rain = 0
KQU1 061656Z 21013KT 31/14 A30 RMK A01 T03090136  RH  035%=      5-min Rain = 0
KQU1 061657Z 22013KT 31/14 A30 RMK A01 T03110135  RH  034%=      5-min Rain = 0
KQU1 061658Z 21011KT 31/14 A30 RMK A01 T03130135  RH  034%=      5-min Rain = 0
KQU1 061659Z 21010KT 31/14 A30 RMK A01 T03130135  RH  034%=      5-min Rain = 0
KQU1 061700Z 21011KT 32/14 A30 RMK A01 T03150136  RH  033%=      5-min Rain = 0
KQU1 061701Z 23010KT 32/14 A30 RMK A01 T03180138  RH  033%=      5-min Rain = 0
KQU1 061702Z 23010KT 32/14 A30 RMK A01 T03230137  RH  032%=      5-min Rain = 0
KQU1 061703Z 21012G17KT 33/14 A30 RMK A01 T03250137  RH  032%=      5-min Rain = 0
KQU1 061704Z 21013KT 33/13 A30 RMK A01 T03260133  RH  031%=      5-min Rain = 0
KQU1 061705Z 20014KT 33/14 A2999 RMK A01 T03250136  RH  032%=      5-min Rain = 0
KQU1 061706Z 20015KT 33/14 A2999 RMK A01 T03260136  RH  032%=      5-min Rain = 0
KQU1 061707Z 20016KT 32/14 A2999 RMK A01 T03240135  RH  032%=      5-min Rain = 0
KQU1 061708Z 20014KT 32/13 A2999 RMK A01 T03210134  RH  032%=      5-min Rain = 0
KQU1 061709Z 21014KT 32/14 A2999 RMK A01 T03200135  RH  032%=      5-min Rain = 0
KQU1 061710Z 21012KT 32/13 A2999 RMK A01 T03190133  RH  032%=      5-min Rain = 0
KQU1 061711Z 20013KT 32/13 A2999 RMK A01 T03190133  RH  032%=      5-min Rain = 0
KQU1 061712Z 22010KT 32/13 A2999 RMK A01 T03190134  RH  032%=      5-min Rain = 0
KQU1 061713Z 22012G17KT 32/13 A2999 RMK A01 T03200134  RH  032%=      5-min Rain = 0
KQU1 061714Z 21014KT 32/13 A2999 RMK A01 T03200130  RH  031%=      5-min Rain = 0
KQU1 061715Z 20013KT 32/13 A2999 RMK A01 T03200129  RH  031%=      5-min Rain = 0
KQU1 061716Z 20013KT 32/13 A2999 RMK A01 T03210129  RH  031%=      5-min Rain = 0
KQU1 061717Z 21011KT 32/13 A2999 RMK A01 T03210127  RH  031%=      5-min Rain = 0
KQU1 061718Z 20013KT 32/13 A2999 RMK A01 T03220129  RH  031%=      5-min Rain = 0
KQU1 061719Z 20014KT 32/13 A2999 RMK A01 T03230125  RH  030%=      5-min Rain = 0
KQU1 061720Z 21013KT 32/13 A2999 RMK A01 T03240126  RH  030%=      5-min Rain = 0
KQU1 061721Z 19012KT 32/13 A2999 RMK A01 T03230127  RH  030%=      5-min Rain = 0
KQU1 061722Z 20015KT 32/13 A2999 RMK A01 T03240125  RH  030%=      5-min Rain = 0
KQU1 061723Z 21014G19KT 33/12 A2999 RMK A01 T03250122  RH  029%=      5-min Rain = 0
KQU1 061724Z 21015KT 33/12 A2999 RMK A01 T03250124  RH  029%=      5-min Rain = 0
KQU1 061725Z 21015KT 33/13 A2999 RMK A01 T03250126  RH  030%=      5-min Rain = 0
KQU1 061726Z 21013KT 33/13 A2999 RMK A01 T03250129  RH  030%=      5-min Rain = 0
KQU1 061727Z 21013KT 33/13 A2999 RMK A01 T03260129  RH  030%=      5-min Rain = 0
KQU1 061728Z 22011KT 33/13 A2999 RMK A01 T03250129  RH  030%=      5-min Rain = 0
KQU1 061729Z 22010KT 33/13 A2999 RMK A01 T03250129  RH  030%=      5-min Rain = 0
KQU1 061730Z 20008KT 33/13 A2999 RMK A01 T03270131  RH  030%=      5-min Rain = 0
KQU1 061731Z 19012KT 33/13 A2999 RMK A01 T03290131  RH  030%=      5-min Rain = 0
KQU1 061732Z 19011KT 33/13 A2999 RMK A01 T03290131  RH  030%=      5-min Rain = 0
KQU1 061733Z 21009KT 33/13 A2999 RMK A01 T03300132  RH  030%=      5-min Rain = 0
KQU1 061734Z 19011KT 33/13 A2999 RMK A01 T03300132  RH  030%=      5-min Rain = 0
KQU1 061735Z 20011KT 33/13 A2999 RMK A01 T03310131  RH  030%=      5-min Rain = 0
KQU1 061736Z 20010KT 33/13 A2999 RMK A01 T03320130  RH  029%=      5-min Rain = 0
KQU1 061737Z 20009KT 33/13 A2999 RMK A01 T03320131  RH  030%=      5-min Rain = 0
KQU1 061738Z 19007KT 33/13 A2999 RMK A01 T03310132  RH  030%=      5-min Rain = 0
KQU1 061739Z 21008KT 33/13 A2999 RMK A01 T03310132  RH  030%=      5-min Rain = 0
KQU1 061740Z 20008KT 33/13 A2999 RMK A01 T03310132  RH  030%=      5-min Rain = 0
KQU1 061741Z 20010KT 33/13 A2999 RMK A01 T03320129  RH  029%=      5-min Rain = 0
KQU1 061742Z 22010KT 33/13 A2999 RMK A01 T03330125  RH  028%=      5-min Rain = 0
KQU1 061743Z 22011KT 33/12 A2999 RMK A01 T03330124  RH  028%=      5-min Rain = 0
KQU1 061744Z 20012KT 33/12 A2999 RMK A01 T03330123  RH  028%=      5-min Rain = 0
KQU1 061745Z 20011KT 33/12 A2999 RMK A01 T03330120  RH  027%=      5-min Rain = 0
KQU1 061746Z 19012KT 33/12 A2999 RMK A01 T03340121  RH  027%=      5-min Rain = 0
KQU1 061747Z 19010KT 33/12 A2999 RMK A01 T03340122  RH  028%=      5-min Rain = 0
KQU1 061748Z 18010KT 33/12 A2999 RMK A01 T03340122  RH  028%=      5-min Rain = 0
KQU1 061749Z 19013KT 34/12 A2999 RMK A01 T03350120  RH  027%=      5-min Rain = 0
KQU1 061750Z 18013KT 34/12 A2999 RMK A01 T03350122  RH  027%=      5-min Rain = 0
KQU1 061751Z 18012KT 34/12 A2999 RMK A01 T03350122  RH  027%=      5-min Rain = 0
KQU1 061752Z 18009KT 34/13 A2999 RMK A01 T03350126  RH  028%=      5-min Rain = 0
KQU1 061753Z 18012KT 34/12 A2999 RMK A01 T03370123  RH  027%=      5-min Rain = 0
KQU1 061754Z 18013KT 34/13 A2999 RMK A01 T03380125  RH  027%=      5-min Rain = 0
KQU1 061755Z 18011KT 34/13 A2999 RMK A01 T03390128  RH  028%=      5-min Rain = 0
KQU1 061756Z 19013KT 34/13 A2999 RMK A01 T03390125  RH  027%=      5-min Rain = 0
KQU1 061757Z 18013KT 34/12 A2999 RMK A01 T03400124  RH  027%=      5-min Rain = 0
KQU1 061758Z 19010KT 34/12 A2999 RMK A01 T03390124  RH  027%=      5-min Rain = 0
KQU1 061759Z 19011KT 34/12 A2999 RMK A01 T03400116  RH  026%=      5-min Rain = 0
KQU1 061800Z 19010KT 34/12 A2998 RMK A01 T03400119  RH  026%=      5-min Rain = 0
KQU1 061801Z 18011KT 34/12 A2999 RMK A01 T03400122  RH  027%=      5-min Rain = 0
KQU1 061802Z 18011KT 34/12 A2998 RMK A01 T03390121  RH  027%=      5-min Rain = 0
KQU1 061803Z 19011KT 34/12 A2998 RMK A01 T03380120  RH  027%=      5-min Rain = 0
KQU1 061804Z 19010KT 34/12 A2998 RMK A01 T03380122  RH  027%=      5-min Rain = 0
KQU1 061805Z 18009KT 34/12 A2998 RMK A01 T03390121  RH  027%=      5-min Rain = 0
KQU1 061806Z 19012KT 34/12 A2998 RMK A01 T03390120  RH  026%=      5-min Rain = 0
KQU1 061807Z 19010KT 34/12 A2998 RMK A01 T03390119  RH  026%=      5-min Rain = 0
KQU1 061808Z 19012KT 34/12 A2998 RMK A01 T03390117  RH  026%=      5-min Rain = 0
KQU1 061809Z 20013KT 34/11 A2998 RMK A01 T03380114  RH  026%=      5-min Rain = 0
KQU1 061810Z 19012KT 34/11 A2998 RMK A01 T03370114  RH  026%=      5-min Rain = 0
KQU1 061811Z 20010KT 34/12 A2998 RMK A01 T03360115  RH  026%=      5-min Rain = 0
KQU1 061812Z 21012KT 34/11 A2998 RMK A01 T03360114  RH  026%=      5-min Rain = 0
KQU1 061813Z 20012KT 34/12 A2998 RMK A01 T03360115  RH  026%=      5-min Rain = 0
KQU1 061814Z 19012KT 34/12 A2998 RMK A01 T03360115  RH  026%=      5-min Rain = 0
KQU1 061815Z 19011KT 34/12 A2998 RMK A01 T03350118  RH  027%=      5-min Rain = 0
KQU1 061816Z 18010KT 34/12 A2998 RMK A01 T03350118  RH  027%=      5-min Rain = 0
KQU1 061817Z 18010KT 34/12 A2998 RMK A01 T03350120  RH  027%=      5-min Rain = 0
KQU1 061818Z 18009KT 34/12 A2998 RMK A01 T03350119  RH  027%=      5-min Rain = 0
KQU1 061819Z 18010KT 34/12 A2999 RMK A01 T03350119  RH  027%=      5-min Rain = 0
KQU1 061820Z 18012KT 34/12 A2999 RMK A01 T03350121  RH  027%=      5-min Rain = 0
KQU1 061821Z 18012KT 34/12 A2999 RMK A01 T03350122  RH  027%=      5-min Rain = 0
KQU1 061822Z 20010KT 34/12 A2999 RMK A01 T03360122  RH  027%=      5-min Rain = 0
KQU1 061823Z 20010KT 34/12 A2999 RMK A01 T03370120  RH  027%=      5-min Rain = 0
KQU1 061824Z 21009KT 34/12 A2999 RMK A01 T03370122  RH  027%=      5-min Rain = 0
KQU1 061825Z 19007KT 34/12 A2999 RMK A01 T03390124  RH  027%=      5-min Rain = 0
KQU1 061826Z 20008KT 34/12 A2999 RMK A01 T03400121  RH  026%=      5-min Rain = 0
KQU1 061827Z 19012KT 34/12 A2999 RMK A01 T03420121  RH  026%=      5-min Rain = 0
KQU1 061828Z 19010KT 34/12 A2998 RMK A01 T03420121  RH  026%=      5-min Rain = 0
KQU1 061829Z 19010KT 34/12 A2998 RMK A01 T03440121  RH  026%=      5-min Rain = 0
KQU1 061830Z 21010KT 35/12 A2998 RMK A01 T03450117  RH  025%=      5-min Rain = 0
KQU1 061831Z 22009KT 35/12 A2998 RMK A01 T03480116  RH  025%=      5-min Rain = 0
KQU1 061832Z 22009KT 35/12 A2998 RMK A01 T03520115  RH  024%=      5-min Rain = 0
KQU1 061833Z 21009KT 35/12 A2998 RMK A01 T03540116  RH  024%=      5-min Rain = 0
KQU1 061834Z 22011KT 35/11 A2998 RMK A01 T03540113  RH  023%=      5-min Rain = 0
KQU1 061835Z 21009KT 35/11 A2998 RMK A01 T03530109  RH  023%=      5-min Rain = 0
KQU1 061836Z 19010KT 35/12 A2998 RMK A01 T03520117  RH  024%=      5-min Rain = 0
KQU1 061837Z 19013KT 35/12 A2998 RMK A01 T03520117  RH  024%=      5-min Rain = 0
KQU1 061838Z 20013KT 35/12 A2998 RMK A01 T03510116  RH  024%=      5-min Rain = 0
KQU1 061839Z 20012KT 35/12 A2998 RMK A01 T03500115  RH  024%=      5-min Rain = 0
KQU1 061840Z 21012KT 35/12 A2998 RMK A01 T03500115  RH  024%=      5-min Rain = 0
KQU1 061841Z 21012KT 35/11 A2998 RMK A01 T03490114  RH  024%=      5-min Rain = 0
KQU1 061842Z 21012KT 35/11 A2998 RMK A01 T03490110  RH  023%=      5-min Rain = 0
KQU1 061843Z 20011KT 35/11 A2998 RMK A01 T03490110  RH  023%=      5-min Rain = 0
KQU1 061844Z 21012KT 35/11 A2998 RMK A01 T03480113  RH  024%=      5-min Rain = 0
KQU1 061845Z 20011KT 35/11 A2998 RMK A01 T03470114  RH  024%=      5-min Rain = 0
KQU1 061846Z 20011KT 35/12 A2998 RMK A01 T03470115  RH  025%=      5-min Rain = 0
KQU1 061847Z 20014KT 35/11 A2998 RMK A01 T03470112  RH  024%=      5-min Rain = 0
KQU1 061848Z 20014KT 35/11 A2998 RMK A01 T03450113  RH  024%=      5-min Rain = 0
KQU1 061849Z 20013KT 35/11 A2998 RMK A01 T03450113  RH  025%=      5-min Rain = 0
KQU1 061850Z 20011KT 34/11 A2998 RMK A01 T03440114  RH  025%=      5-min Rain = 0
KQU1 061851Z 19010KT 34/12 A2998 RMK A01 T03440115  RH  025%=      5-min Rain = 0
KQU1 061852Z 19012KT 34/11 A2998 RMK A01 T03430113  RH  025%=      5-min Rain = 0
KQU1 061853Z 19013KT 34/11 A2998 RMK A01 T03430110  RH  024%=      5-min Rain = 0
KQU1 061854Z 19012KT 34/11 A2998 RMK A01 T03430109  RH  024%=      5-min Rain = 0
KQU1 061855Z 20010KT 34/11 A2998 RMK A01 T03430106  RH  024%=      5-min Rain = 0
KQU1 061856Z 20011KT 34/11 A2998 RMK A01 T03440105  RH  023%=      5-min Rain = 0
KQU1 061857Z 20010KT 34/11 A2998 RMK A01 T03440107  RH  024%=      5-min Rain = 0
KQU1 061858Z 20009KT 34/12 A2998 RMK A01 T03440119  RH  026%=      5-min Rain = 0
KQU1 061859Z 19007KT 34/13 A2998 RMK A01 T03440129  RH  027%=      5-min Rain = 0
KQU1 061900Z 19011KT 35/12 A2998 RMK A01 T03460118  RH  025%=      5-min Rain = 0
KQU1 061901Z 20012KT 35/11 A2998 RMK A01 T03480112  RH  024%=      5-min Rain = 0
KQU1 061902Z 20012KT 35/11 A2998 RMK A01 T03490113  RH  024%=      5-min Rain = 0
KQU1 061903Z 20013KT 35/11 A2998 RMK A01 T03490111  RH  024%=      5-min Rain = 0
KQU1 061904Z 19012KT 35/11 A2998 RMK A01 T03480110  RH  023%=      5-min Rain = 0
KQU1 061905Z 20014KT 35/11 A2998 RMK A01 T03470112  RH  024%=      5-min Rain = 0
KQU1 061906Z 20013KT 35/11 A2998 RMK A01 T03460113  RH  024%=      5-min Rain = 0
KQU1 061907Z 21010KT 35/11 A2998 RMK A01 T03460112  RH  024%=      5-min Rain = 0
KQU1 061908Z 22007KT 35/11 A2998 RMK A01 T03450113  RH  024%=      5-min Rain = 0
KQU1 061909Z 22009KT 35/11 A2998 RMK A01 T03450112  RH  024%=      5-min Rain = 0
KQU1 061910Z 20007KT 35/11 A2998 RMK A01 T03450113  RH  024%=      5-min Rain = 0
KQU1 061911Z 20008KT 35/11 A2998 RMK A01 T03460111  RH  024%=      5-min Rain = 0
KQU1 061912Z 19009KT 35/11 A2998 RMK A01 T03470109  RH  023%=      5-min Rain = 0
KQU1 061913Z 20010KT 35/10 A2998 RMK A01 T03480104  RH  023%=      5-min Rain = 0
KQU1 061914Z 21010KT 35/10 A2998 RMK A01 T03480104  RH  023%=      5-min Rain = 0
KQU1 061915Z 20010KT 35/10 A2998 RMK A01 T03490103  RH  022%=      5-min Rain = 0
KQU1 061916Z 21009KT 35/11 A2998 RMK A01 T03490105  RH  023%=      5-min Rain = 0
KQU1 061917Z 19011KT 35/11 A2998 RMK A01 T03500106  RH  023%=      5-min Rain = 0
KQU1 061918Z 19007KT 35/11 A2998 RMK A01 T03510107  RH  023%=      5-min Rain = 0
KQU1 061919Z 19007KT 35/11 A2998 RMK A01 T03520107  RH  023%=      5-min Rain = 0
KQU1 061920Z 18010KT 35/11 A2998 RMK A01 T03530108  RH  023%=      5-min Rain = 0
KQU1 061921Z 19010KT 35/11 A2998 RMK A01 T03530107  RH  023%=      5-min Rain = 0
KQU1 061922Z 19008KT 35/11 A2998 RMK A01 T03530108  RH  023%=      5-min Rain = 0
KQU1 061923Z 19008KT 35/11 A2998 RMK A01 T03530105  RH  022%=      5-min Rain = 0
KQU1 061924Z 20010KT 35/11 A2998 RMK A01 T03530105  RH  022%=      5-min Rain = 0
KQU1 061925Z 23007KT 35/10 A2998 RMK A01 T03540103  RH  022%=      5-min Rain = 0
KQU1 061926Z 23007KT 36/11 A2998 RMK A01 T03550105  RH  022%=      5-min Rain = 0
KQU1 061927Z 23006KT 35/11 A2998 RMK A01 T03540107  RH  022%=      5-min Rain = 0
KQU1 061928Z 21007KT 36/10 A2998 RMK A01 T03550104  RH  022%=      5-min Rain = 0
KQU1 061929Z 19011KT 36/10 A2998 RMK A01 T03550099  RH  021%=      5-min Rain = 0
KQU1 061930Z 21007KT 35/10 A2998 RMK A01 T03540101  RH  021%=      5-min Rain = 0
KQU1 061931Z 21006KT 35/10 A2998 RMK A01 T03530102  RH  022%=      5-min Rain = 0
KQU1 061932Z 20008KT 35/10 A2998 RMK A01 T03520099  RH  021%=      5-min Rain = 0
KQU1 061933Z 20009KT 35/10 A2998 RMK A01 T03520097  RH  021%=      5-min Rain = 0
KQU1 061934Z 19010KT 35/10 A2998 RMK A01 T03520097  RH  021%=      5-min Rain = 0
KQU1 061935Z 20006KT 35/10 A2998 RMK A01 T03510097  RH  021%=      5-min Rain = 0
KQU1 061936Z 20005KT 35/10 A2997 RMK A01 T03500096  RH  021%=      5-min Rain = 0
KQU1 061937Z 23005KT 35/10 A2997 RMK A01 T03490098  RH  022%=      5-min Rain = 0
KQU1 061938Z 22010G15KT 35/10 A2997 RMK A01 T03500099  RH  022%=      5-min Rain = 0
KQU1 061939Z 18009KT 35/10 A2997 RMK A01 T03510099  RH  022%=      5-min Rain = 0
KQU1 061940Z 17009KT 35/10 A2997 RMK A01 T03520101  RH  022%=      5-min Rain = 0
KQU1 061941Z 19010KT 35/09 A2997 RMK A01 T03520094  RH  021%=      5-min Rain = 0
KQU1 061942Z 19008KT 35/09 A2997 RMK A01 T03520092  RH  020%=      5-min Rain = 0
KQU1 061943Z 22009KT 35/09 A2997 RMK A01 T03520094  RH  021%=      5-min Rain = 0
KQU1 061944Z 21008KT 35/09 A2997 RMK A01 T03520092  RH  020%=      5-min Rain = 0
KQU1 061945Z 21006KT 35/09 A2997 RMK A01 T03520092  RH  020%=      5-min Rain = 0
KQU1 061946Z 22006KT 35/09 A2997 RMK A01 T03520090  RH  020%=      5-min Rain = 0
KQU1 061947Z 22005KT 35/09 A2997 RMK A01 T03520094  RH  021%=      5-min Rain = 0
KQU1 061948Z 22005KT 35/09 A2997 RMK A01 T03520092  RH  020%=      5-min Rain = 0
KQU1 061949Z 20005KT 35/09 A2997 RMK A01 T03520092  RH  020%=      5-min Rain = 0
KQU1 061950Z 21006KT 35/10 A2997 RMK A01 T03520097  RH  021%=      5-min Rain = 0
KQU1 061951Z 22008KT 35/10 A2997 RMK A01 T03530099  RH  021%=      5-min Rain = 0
KQU1 061952Z 22007KT 35/10 A2997 RMK A01 T03540098  RH  021%=      5-min Rain = 0
KQU1 061953Z 23005KT 35/10 A2997 RMK A01 T03540099  RH  021%=      5-min Rain = 0
KQU1 061954Z 23006KT 36/10 A2997 RMK A01 T03550097  RH  021%=      5-min Rain = 0
KQU1 061955Z 22007KT 36/09 A2997 RMK A01 T03550093  RH  020%=      5-min Rain = 0
KQU1 061956Z 17010KT 36/09 A2997 RMK A01 T03550091  RH  020%=      5-min Rain = 0
KQU1 061957Z 17010KT 36/09 A2997 RMK A01 T03560093  RH  020%=      5-min Rain = 0
KQU1 061958Z 18011KT 36/09 A2997 RMK A01 T03560087  RH  019%=      5-min Rain = 0
KQU1 061959Z 18008KT 36/09 A2997 RMK A01 T03560087  RH  019%=      5-min Rain = 0
KQU1 062000Z 19010KT 36/09 A2997 RMK A01 T03560088  RH  020%=      5-min Rain = 0
KQU1 062001Z 18008KT 36/09 A2997 RMK A01 T03570090  RH  020%=      5-min Rain = 0
KQU1 062002Z 17008KT 36/09 A2997 RMK A01 T03590092  RH  020%=      5-min Rain = 0
KQU1 062003Z 17008KT 36/09 A2997 RMK A01 T03580091  RH  020%=      5-min Rain = 0
KQU1 062004Z 17007KT 36/10 A2997 RMK A01 T03580097  RH  020%=      5-min Rain = 0
KQU1 062005Z 16009KT 36/10 A2997 RMK A01 T03600100  RH  021%=      5-min Rain = 0
KQU1 062006Z 16011KT 36/10 A2997 RMK A01 T03600100  RH  021%=      5-min Rain = 0
KQU1 062007Z 17010KT 36/10 A2997 RMK A01 T03600098  RH  020%=      5-min Rain = 0
KQU1 062008Z 18008KT 36/10 A2997 RMK A01 T03600095  RH  020%=      5-min Rain = 0
KQU1 062009Z 18007KT 36/10 A2997 RMK A01 T03590097  RH  020%=      5-min Rain = 0
KQU1 062010Z 17005KT 36/09 A2997 RMK A01 T03580094  RH  020%=      5-min Rain = 0
KQU1 062011Z 16004KT 36/10 A2997 RMK A01 T03570096  RH  020%=      5-min Rain = 0
KQU1 062012Z 16004KT 36/10 A2997 RMK A01 T03560100  RH  021%=      5-min Rain = 0
KQU1 062013Z 18007KT 36/10 A2997 RMK A01 T03560096  RH  020%=      5-min Rain = 0
KQU1 062014Z 17006KT 36/10 A2997 RMK A01 T03570096  RH  021%=      5-min Rain = 0
KQU1 062015Z 18004KT 36/09 A2997 RMK A01 T03560093  RH  020%=      5-min Rain = 0
KQU1 062016Z 17003KT 36/09 A2997 RMK A01 T03560090  RH  020%=      5-min Rain = 0
KQU1 062017Z 14005KT 36/10 A2997 RMK A01 T03550100  RH  021%=      5-min Rain = 0
KQU1 062018Z 14007KT 36/10 A2997 RMK A01 T03550103  RH  022%=      5-min Rain = 0
KQU1 062019Z 15006KT 36/10 A2997 RMK A01 T03550102  RH  021%=      5-min Rain = 0
KQU1 062020Z 16003KT 36/10 A2997 RMK A01 T03550099  RH  021%=      5-min Rain = 0
KQU1 062021Z 16004KT 36/10 A2997 RMK A01 T03550098  RH  021%=      5-min Rain = 0
KQU1 062022Z 16005KT 36/11 A2997 RMK A01 T03550105  RH  022%=      5-min Rain = 0
KQU1 062023Z 16006KT 36/10 A2997 RMK A01 T03550103  RH  022%=      5-min Rain = 0
KQU1 062024Z 15004KT 36/10 A2997 RMK A01 T03550104  RH  022%=      5-min Rain = 0
KQU1 062025Z 16003KT 36/11 A2996 RMK A01 T03550107  RH  022%=      5-min Rain = 0
KQU1 062026Z 15005KT 36/11 A2996 RMK A01 T03560106  RH  022%=      5-min Rain = 0
KQU1 062027Z 13004KT 36/11 A2996 RMK A01 T03560108  RH  022%=      5-min Rain = 0
KQU1 062028Z 15004KT 36/11 A2996 RMK A01 T03570109  RH  022%=      5-min Rain = 0
KQU1 062029Z 15007KT 36/11 A2996 RMK A01 T03570109  RH  022%=      5-min Rain = 0
KQU1 062030Z 14012KT 36/12 A2996 RMK A01 T03570116  RH  023%=      5-min Rain = 0
KQU1 062031Z 14009KT 36/12 A2996 RMK A01 T03570119  RH  024%=      5-min Rain = 0
KQU1 062032Z 14009KT 36/12 A2996 RMK A01 T03560120  RH  024%=      5-min Rain = 0
KQU1 062033Z 14010KT 36/12 A2996 RMK A01 T03560119  RH  024%=      5-min Rain = 0
KQU1 062034Z 13012KT 36/12 A2996 RMK A01 T03560116  RH  024%=      5-min Rain = 0
KQU1 062035Z 12009KT 36/12 A2996 RMK A01 T03550117  RH  024%=      5-min Rain = 0
KQU1 062036Z 13011KT 35/12 A2996 RMK A01 T03540116  RH  024%=      5-min Rain = 0
KQU1 062037Z 13012KT 35/11 A2996 RMK A01 T03530114  RH  024%=      5-min Rain = 0
KQU1 062038Z 13010G15KT 35/12 A2996 RMK A01 T03520116  RH  024%=      5-min Rain = 0
KQU1 062039Z 13013KT 35/12 A2996 RMK A01 T03520117  RH  024%=      5-min Rain = 0
KQU1 062040Z 13010KT 35/12 A2996 RMK A01 T03510117  RH  024%=      5-min Rain = 0
KQU1 062041Z 11011KT 35/12 A2996 RMK A01 T03510118  RH  024%=      5-min Rain = 0
KQU1 062042Z 11012KT 35/12 A2996 RMK A01 T03500116  RH  024%=      5-min Rain = 0
KQU1 062043Z 11012KT 35/12 A2995 RMK A01 T03500117  RH  024%=      5-min Rain = 0
KQU1 062044Z 12012KT 35/12 A2995 RMK A01 T03490119  RH  025%=      5-min Rain = 0
KQU1 062045Z 12011KT 35/12 A2995 RMK A01 T03490118  RH  025%=      5-min Rain = 0
KQU1 062046Z 11010KT 35/12 A2995 RMK A01 T03490117  RH  025%=      5-min Rain = 0
KQU1 062047Z 11010KT 35/12 A2995 RMK A01 T03490117  RH  025%=      5-min Rain = 0
KQU1 062048Z 11007KT 35/12 A2995 RMK A01 T03490120  RH  025%=      5-min Rain = 0
KQU1 062049Z 12010KT 35/12 A2995 RMK A01 T03490118  RH  025%=      5-min Rain = 0
KQU1 062050Z 13011KT 35/11 A2995 RMK A01 T03500114  RH  024%=      5-min Rain = 0
KQU1 062051Z 13009KT 35/12 A2995 RMK A01 T03510115  RH  024%=      5-min Rain = 0
KQU1 062052Z 13010KT 35/12 A2995 RMK A01 T03520118  RH  024%=      5-min Rain = 0
KQU1 062053Z 14012KT 35/11 A2995 RMK A01 T03530113  RH  023%=      5-min Rain = 0
KQU1 062054Z 15011KT 36/11 A2995 RMK A01 T03550109  RH  023%=      5-min Rain = 0
KQU1 062055Z 18011KT 36/11 A2995 RMK A01 T03560105  RH  022%=      5-min Rain = 0
KQU1 062056Z 17010KT 36/11 A2995 RMK A01 T03580108  RH  022%=      5-min Rain = 0
KQU1 062057Z 18013KT 36/09 A2995 RMK A01 T03590087  RH  019%=      5-min Rain = 0
KQU1 062058Z 19012KT 36/08 A2995 RMK A01 T03600078  RH  018%=      5-min Rain = 0
KQU1 062059Z 18011KT 36/08 A2995 RMK A01 T03610079  RH  018%=      5-min Rain = 0
KQU1 062100Z 18009KT 36/08 A2995 RMK A01 T03620079  RH  018%=      5-min Rain = 0
KQU1 062101Z 17010KT 36/09 A2995 RMK A01 T03630088  RH  019%=      5-min Rain = 0
KQU1 062102Z 18013KT 36/09 A2995 RMK A01 T03620092  RH  019%=      5-min Rain = 0
KQU1 062103Z 19016KT 36/09 A2995 RMK A01 T03630091  RH  019%=      5-min Rain = 0
KQU1 062104Z 19014KT 36/09 A2995 RMK A01 T03630093  RH  019%=      5-min Rain = 0
KQU1 062105Z 18013KT 36/09 A2995 RMK A01 T03620090  RH  019%=      5-min Rain = 0
KQU1 062106Z 18010G15KT 36/09 A2994 RMK A01 T03620087  RH  019%=      5-min Rain = 0
KQU1 062107Z 19015KT 36/08 A2995 RMK A01 T03620082  RH  018%=      5-min Rain = 0
KQU1 062108Z 19016G21KT 36/08 A2994 RMK A01 T03620075  RH  017%=      5-min Rain = 0
KQU1 062109Z 19016KT 36/08 A2994 RMK A01 T03630076  RH  017%=      5-min Rain = 0
KQU1 062110Z 19015KT 36/08 A2994 RMK A01 T03630077  RH  017%=      5-min Rain = 0
KQU1 062111Z 18012KT 36/08 A2994 RMK A01 T03630078  RH  018%=      5-min Rain = 0
KQU1 062112Z 18013KT 36/08 A2994 RMK A01 T03620081  RH  018%=      5-min Rain = 0
KQU1 062113Z 18013KT 36/08 A2994 RMK A01 T03620082  RH  018%=      5-min Rain = 0
KQU1 062114Z 18014KT 36/08 A2994 RMK A01 T03620083  RH  018%=      5-min Rain = 0
KQU1 062115Z 19014KT 36/08 A2994 RMK A01 T03620082  RH  018%=      5-min Rain = 0
KQU1 062116Z 19010KT 36/08 A2994 RMK A01 T03610083  RH  018%=      5-min Rain = 0
KQU1 062117Z 17010KT 36/09 A2994 RMK A01 T03620087  RH  019%=      5-min Rain = 0
KQU1 062118Z 19009KT 36/09 A2994 RMK A01 T03620087  RH  019%=      5-min Rain = 0
KQU1 062119Z 18008KT 36/09 A2994 RMK A01 T03620088  RH  019%=      5-min Rain = 0
KQU1 062120Z 18011KT 36/09 A2994 RMK A01 T03630085  RH  018%=      5-min Rain = 0
KQU1 062121Z 18013KT 36/08 A2994 RMK A01 T03630082  RH  018%=      5-min Rain = 0
KQU1 062122Z 17010KT 36/09 A2994 RMK A01 T03620085  RH  018%=      5-min Rain = 0
KQU1 062123Z 16009KT 36/09 A2994 RMK A01 T03620088  RH  019%=      5-min Rain = 0
KQU1 062124Z 17010KT 36/09 A2994 RMK A01 T03610088  RH  019%=      5-min Rain = 0
KQU1 062125Z 17011KT 36/09 A2994 RMK A01 T03620091  RH  019%=      5-min Rain = 0
KQU1 062126Z 17013KT 36/09 A2994 RMK A01 T03630091  RH  019%=      5-min Rain = 0
KQU1 062127Z 16014KT 36/09 A2994 RMK A01 T03640092  RH  019%=      5-min Rain = 0
KQU1 062128Z 17012KT 37/09 A2994 RMK A01 T03650093  RH  019%=      5-min Rain = 0
KQU1 062129Z 18010KT 37/09 A2994 RMK A01 T03660090  RH  019%=      5-min Rain = 0
KQU1 062130Z 16011KT 37/10 A2994 RMK A01 T03660095  RH  019%=      5-min Rain = 0
KQU1 062131Z 13011KT 37/12 A2994 RMK A01 T03650120  RH  023%=      5-min Rain = 0
KQU1 062132Z 13010KT 36/13 A2994 RMK A01 T03620127  RH  024%=      5-min Rain = 0
KQU1 062133Z 14009KT 36/13 A2994 RMK A01 T03600128  RH  025%=      5-min Rain = 0
KQU1 062134Z 15010KT 36/13 A2994 RMK A01 T03580125  RH  025%=      5-min Rain = 0
KQU1 062135Z 15012KT 36/12 A2994 RMK A01 T03570124  RH  025%=      5-min Rain = 0
KQU1 062136Z 14013KT 36/13 A2994 RMK A01 T03570127  RH  025%=      5-min Rain = 0
KQU1 062137Z 15011KT 36/13 A2994 RMK A01 T03570130  RH  026%=      5-min Rain = 0
KQU1 062138Z 12010KT 36/13 A2993 RMK A01 T03570131  RH  026%=      5-min Rain = 0
KQU1 062139Z 13011KT 36/13 A2993 RMK A01 T03580131  RH  026%=      5-min Rain = 0
KQU1 062140Z 13011KT 36/13 A2993 RMK A01 T03580131  RH  026%=      5-min Rain = 0
KQU1 062141Z 14013KT 36/13 A2993 RMK A01 T03570130  RH  026%=      5-min Rain = 0
KQU1 062142Z 14011KT 36/13 A2993 RMK A01 T03570131  RH  026%=      5-min Rain = 0
KQU1 062143Z 14014KT 36/13 A2993 RMK A01 T03560130  RH  026%=      5-min Rain = 0
KQU1 062144Z 14013KT 36/13 A2993 RMK A01 T03560130  RH  026%=      5-min Rain = 0
KQU1 062145Z 15011KT 36/13 A2993 RMK A01 T03560129  RH  026%=      5-min Rain = 0
KQU1 062146Z 14010KT 36/13 A2993 RMK A01 T03560133  RH  026%=      5-min Rain = 0
KQU1 062147Z 14012KT 36/13 A2993 RMK A01 T03570130  RH  026%=      5-min Rain = 0
KQU1 062148Z 14014KT 36/13 A2993 RMK A01 T03580131  RH  026%=      5-min Rain = 0
KQU1 062149Z 13013KT 36/13 A2993 RMK A01 T03590131  RH  025%=      5-min Rain = 0
KQU1 062150Z 14015KT 36/13 A2993 RMK A01 T03600129  RH  025%=      5-min Rain = 0
KQU1 062151Z 14013KT 36/13 A2993 RMK A01 T03590129  RH  025%=      5-min Rain = 0
KQU1 062152Z 13014KT 36/13 A2993 RMK A01 T03570126  RH  025%=      5-min Rain = 0
KQU1 062153Z 14013KT 36/13 A2993 RMK A01 T03570128  RH  025%=      5-min Rain = 0
KQU1 062154Z 14011KT 36/13 A2993 RMK A01 T03580130  RH  025%=      5-min Rain = 0
KQU1 062155Z 14011KT 36/13 A2993 RMK A01 T03590130  RH  025%=      5-min Rain = 0
KQU1 062156Z 14011KT 36/13 A2992 RMK A01 T03600130  RH  025%=      5-min Rain = 0
KQU1 062157Z 14011KT 36/13 A2992 RMK A01 T03600128  RH  025%=      5-min Rain = 0
KQU1 062158Z 13011KT 36/13 A2992 RMK A01 T03590128  RH  025%=      5-min Rain = 0
KQU1 062159Z 13009KT 36/13 A2992 RMK A01 T03600129  RH  025%=      5-min Rain = 0
KQU1 062200Z 15011KT 36/13 A2992 RMK A01 T03620130  RH  025%=      5-min Rain = 0
KQU1 062201Z 15010KT 36/13 A2992 RMK A01 T03640125  RH  024%=      5-min Rain = 0
KQU1 062202Z 13012KT 37/13 A2992 RMK A01 T03670125  RH  024%=      5-min Rain = 0
KQU1 062203Z 14011KT 37/13 A2992 RMK A01 T03690128  RH  024%=      5-min Rain = 0
KQU1 062204Z 14013KT 37/13 A2992 RMK A01 T03700128  RH  023%=      5-min Rain = 0
KQU1 062205Z 14017KT 37/12 A2992 RMK A01 T03720122  RH  022%=      5-min Rain = 0
KQU1 062206Z 13017KT 37/12 A2992 RMK A01 T03720123  RH  023%=      5-min Rain = 0
KQU1 062207Z 13017G22KT 37/12 A2991 RMK A01 T03710123  RH  023%=      5-min Rain = 0
KQU1 062208Z 13016KT 37/12 A2991 RMK A01 T03700121  RH  022%=      5-min Rain = 0
KQU1 062209Z 14014KT 37/12 A2991 RMK A01 T03700119  RH  022%=      5-min Rain = 0
KQU1 062210Z 14013KT 37/12 A2992 RMK A01 T03700121  RH  023%=      5-min Rain = 0
KQU1 062211Z 15012KT 37/12 A2991 RMK A01 T03700120  RH  022%=      5-min Rain = 0
KQU1 062212Z 15013KT 37/12 A2991 RMK A01 T03700123  RH  023%=      5-min Rain = 0
KQU1 062213Z 16014KT 37/12 A2991 RMK A01 T03700115  RH  022%=      5-min Rain = 0
KQU1 062214Z 15014KT 37/12 A2991 RMK A01 T03680119  RH  022%=      5-min Rain = 0
KQU1 062215Z 15014KT 37/12 A2991 RMK A01 T03680117  RH  022%=      5-min Rain = 0
KQU1 062216Z 14013KT 37/12 A2991 RMK A01 T03680116  RH  022%=      5-min Rain = 0
KQU1 062217Z 14012KT 37/12 A2991 RMK A01 T03700118  RH  022%=      5-min Rain = 0
KQU1 062218Z 14015KT 37/12 A2991 RMK A01 T03710116  RH  022%=      5-min Rain = 0
KQU1 062219Z 15014KT 37/12 A2991 RMK A01 T03730115  RH  021%=      5-min Rain = 0
KQU1 062220Z 14013KT 37/12 A2991 RMK A01 T03730116  RH  021%=      5-min Rain = 0
KQU1 062221Z 13014KT 37/12 A2991 RMK A01 T03730116  RH  021%=      5-min Rain = 0
KQU1 062222Z 12016KT 37/11 A2991 RMK A01 T03730114  RH  021%=      5-min Rain = 0
KQU1 062223Z 14015KT 37/12 A2991 RMK A01 T03730115  RH  021%=      5-min Rain = 0
KQU1 062224Z 14015KT 37/12 A2991 RMK A01 T03730115  RH  021%=      5-min Rain = 0
KQU1 062225Z 13013KT 37/11 A2991 RMK A01 T03730113  RH  021%=      5-min Rain = 0
KQU1 062226Z 13013KT 37/11 A2991 RMK A01 T03720114  RH  021%=      5-min Rain = 0
KQU1 062227Z 14014KT 37/12 A2991 RMK A01 T03720115  RH  021%=      5-min Rain = 0
KQU1 062228Z 15013KT 37/11 A2991 RMK A01 T03730114  RH  021%=      5-min Rain = 0
KQU1 062229Z 14012KT 37/12 A2991 RMK A01 T03730116  RH  021%=      5-min Rain = 0
KQU1 062230Z 12015KT 37/12 A2991 RMK A01 T03730117  RH  021%=      5-min Rain = 0
KQU1 062231Z 12014KT 37/12 A2991 RMK A01 T03720116  RH  021%=      5-min Rain = 0
KQU1 062232Z 13012KT 37/12 A2991 RMK A01 T03710116  RH  022%=      5-min Rain = 0
KQU1 062233Z 13013KT 37/11 A2991 RMK A01 T03710114  RH  021%=      5-min Rain = 0
KQU1 062234Z 14010KT 37/12 A2991 RMK A01 T03710118  RH  022%=      5-min Rain = 0
KQU1 062235Z 15013KT 37/12 A2991 RMK A01 T03700116  RH  022%=      5-min Rain = 0
KQU1 062236Z 15014KT 37/11 A2991 RMK A01 T03710107  RH  020%=      5-min Rain = 0
KQU1 062237Z 16014KT 37/11 A2991 RMK A01 T03710108  RH  020%=      5-min Rain = 0
KQU1 062238Z 16011KT 37/11 A299 RMK A01 T03720106  RH  020%=      5-min Rain = 0
KQU1 062239Z 16011KT 37/11 A299 RMK A01 T03730107  RH  020%=      5-min Rain = 0
KQU1 062240Z 18011G16KT 38/10 A299 RMK A01 T03750103  RH  019%=      5-min Rain = 0
KQU1 062241Z 17013G19KT 38/10 A299 RMK A01 T03780103  RH  019%=      5-min Rain = 0
KQU1 062242Z 18014KT 38/10 A299 RMK A01 T03790102  RH  019%=      5-min Rain = 0
KQU1 062243Z 16013KT 38/10 A299 RMK A01 T03800103  RH  019%=      5-min Rain = 0
KQU1 062244Z 18019KT 38/10 A299 RMK A01 T03800102  RH  019%=      5-min Rain = 0
KQU1 062245Z 18016G21KT 38/10 A2991 RMK A01 T03800099  RH  018%=      5-min Rain = 0
KQU1 062246Z 18015KT 38/10 A299 RMK A01 T03800099  RH  018%=      5-min Rain = 0
KQU1 062247Z 18011KT 38/10 A299 RMK A01 T03790102  RH  019%=      5-min Rain = 0
KQU1 062248Z 16014KT 38/10 A299 RMK A01 T03790103  RH  019%=      5-min Rain = 0
KQU1 062249Z 17019KT 38/10 A299 RMK A01 T03800099  RH  018%=      5-min Rain = 0
KQU1 062250Z 17019KT 38/10 A299 RMK A01 T03790099  RH  018%=      5-min Rain = 0
KQU1 062251Z 18018G23KT 38/10 A299 RMK A01 T03790098  RH  018%=      5-min Rain = 0
KQU1 062252Z 19015KT 38/10 A299 RMK A01 T03790096  RH  018%=      5-min Rain = 0
KQU1 062253Z 18017KT 38/10 A299 RMK A01 T03790097  RH  018%=      5-min Rain = 0
KQU1 062254Z 18015KT 38/10 A299 RMK A01 T03790098  RH  018%=      5-min Rain = 0
KQU1 062255Z 18012KT 38/10 A299 RMK A01 T03790097  RH  018%=      5-min Rain = 0
KQU1 062256Z 19010KT 38/10 A299 RMK A01 T03780097  RH  018%=      5-min Rain = 0
KQU1 062257Z 18010KT 38/10 A299 RMK A01 T03770097  RH  019%=      5-min Rain = 0
KQU1 062258Z 16013KT 38/10 A299 RMK A01 T03760099  RH  019%=      5-min Rain = 0
KQU1 062259Z 15012G17KT 38/10 A299 RMK A01 T03770102  RH  019%=      5-min Rain = 0
KQU1 062300Z 16019KT 38/10 A299 RMK A01 T03780100  RH  019%=      5-min Rain = 0
KQU1 062301Z 16018KT 38/10 A299 RMK A01 T03770099  RH  019%=      5-min Rain = 0
KQU1 062302Z 17017KT 38/10 A299 RMK A01 T03770099  RH  019%=      5-min Rain = 0
KQU1 062303Z 17016KT 38/10 A299 RMK A01 T03770099  RH  019%=      5-min Rain = 0
KQU1 062304Z 17015KT 38/10 A299 RMK A01 T03770099  RH  019%=      5-min Rain = 0
KQU1 062305Z 17015KT 38/10 A299 RMK A01 T03770098  RH  019%=      5-min Rain = 0
KQU1 062306Z 17014KT 38/10 A299 RMK A01 T03770100  RH  019%=      5-min Rain = 0
KQU1 062307Z 18015KT 38/09 A299 RMK A01 T03760094  RH  018%=      5-min Rain = 0
KQU1 062308Z 18014KT 37/09 A299 RMK A01 T03740093  RH  018%=      5-min Rain = 0
KQU1 062309Z 19012KT 37/09 A2989 RMK A01 T03740092  RH  018%=      5-min Rain = 0
KQU1 062310Z 19015KT 38/09 A2989 RMK A01 T03750092  RH  018%=      5-min Rain = 0
KQU1 062311Z 18018KT 38/09 A2989 RMK A01 T03750093  RH  018%=      5-min Rain = 0
KQU1 062312Z 17017G22KT 38/10 A2989 RMK A01 T03760098  RH  019%=      5-min Rain = 0
KQU1 062313Z 17014KT 38/10 A2989 RMK A01 T03760099  RH  019%=      5-min Rain = 0
KQU1 062314Z 17015KT 38/10 A2989 RMK A01 T03750098  RH  019%=      5-min Rain = 0
KQU1 062315Z 17013KT 37/10 A2989 RMK A01 T03740099  RH  019%=      5-min Rain = 0
KQU1 062316Z 16013KT 38/10 A2989 RMK A01 T03750101  RH  019%=      5-min Rain = 0
KQU1 062317Z 17016G21KT 38/10 A2989 RMK A01 T03760100  RH  019%=      5-min Rain = 0
KQU1 062318Z 18016KT 38/10 A2989 RMK A01 T03760097  RH  019%=      5-min Rain = 0
KQU1 062319Z 17017G22KT 38/10 A2989 RMK A01 T03770098  RH  019%=      5-min Rain = 0
KQU1 062320Z 17015KT 38/10 A2989 RMK A01 T03750098  RH  019%=      5-min Rain = 0
KQU1 062321Z 16017KT 37/10 A2989 RMK A01 T03740098  RH  019%=      5-min Rain = 0
KQU1 062322Z 17017G22KT 37/10 A2989 RMK A01 T03720098  RH  019%=      5-min Rain = 0
KQU1 062323Z 18016G21KT 37/10 A2989 RMK A01 T03720096  RH  019%=      5-min Rain = 0
KQU1 062324Z 17016KT 37/10 A2989 RMK A01 T03720097  RH  019%=      5-min Rain = 0
KQU1 062325Z 17019G24KT 37/10 A2989 RMK A01 T03700098  RH  019%=      5-min Rain = 0
KQU1 062326Z 18020KT 37/10 A2989 RMK A01 T03690097  RH  019%=      5-min Rain = 0
KQU1 062327Z 18018KT 37/10 A2989 RMK A01 T03680097  RH  019%=      5-min Rain = 0
KQU1 062328Z 17017KT 37/10 A2989 RMK A01 T03670097  RH  019%=      5-min Rain = 0
KQU1 062329Z 18016KT 37/10 A2989 RMK A01 T03660096  RH  019%=      5-min Rain = 0
KQU1 062330Z 17015KT 37/10 A2989 RMK A01 T03660097  RH  020%=      5-min Rain = 0
KQU1 062331Z 17018KT 37/10 A2989 RMK A01 T03660097  RH  020%=      5-min Rain = 0
KQU1 062332Z 17016KT 37/10 A2989 RMK A01 T03660097  RH  020%=      5-min Rain = 0
KQU1 062333Z 16016G21KT 37/10 A2989 RMK A01 T03650099  RH  020%=      5-min Rain = 0
KQU1 062334Z 18019KT 37/10 A2989 RMK A01 T03650098  RH  020%=      5-min Rain = 0
KQU1 062335Z 17018KT 37/10 A2989 RMK A01 T03650097  RH  020%=      5-min Rain = 0
KQU1 062336Z 18015KT 37/10 A2989 RMK A01 T03650098  RH  020%=      5-min Rain = 0
KQU1 062337Z 18017KT 37/10 A2989 RMK A01 T03660099  RH  020%=      5-min Rain = 0
KQU1 062338Z 17016KT 37/10 A2989 RMK A01 T03670099  RH  020%=      5-min Rain = 0
KQU1 062339Z 17013KT 37/10 A2989 RMK A01 T03680101  RH  020%=      5-min Rain = 0
KQU1 062340Z 17014KT 37/10 A2989 RMK A01 T03680102  RH  020%=      5-min Rain = 0
KQU1 062341Z 18012KT 37/10 A2989 RMK A01 T03680102  RH  020%=      5-min Rain = 0
KQU1 062342Z 17012KT 37/10 A2989 RMK A01 T03690102  RH  020%=      5-min Rain = 0
KQU1 062343Z 17013KT 37/10 A2989 RMK A01 T03700099  RH  019%=      5-min Rain = 0
KQU1 062344Z 17013KT 37/10 A2989 RMK A01 T03700101  RH  020%=      5-min Rain = 0
KQU1 062345Z 17013KT 37/10 A2989 RMK A01 T03700102  RH  020%=      5-min Rain = 0
KQU1 062346Z 17012KT 37/10 A2989 RMK A01 T03700102  RH  020%=      5-min Rain = 0
KQU1 062347Z 18017KT 37/10 A2989 RMK A01 T03710101  RH  020%=      5-min Rain = 0
KQU1 062348Z 17019KT 37/10 A2989 RMK A01 T03710101  RH  020%=      5-min Rain = 0
KQU1 062349Z 17018KT 37/10 A2989 RMK A01 T03710101  RH  020%=      5-min Rain = 0
KQU1 062350Z 17015KT 37/10 A2989 RMK A01 T03700102  RH  020%=      5-min Rain = 0
KQU1 062351Z 17014KT 37/10 A2989 RMK A01 T03700102  RH  020%=      5-min Rain = 0
KQU1 062352Z 18012KT 37/10 A2989 RMK A01 T03700102  RH  020%=      5-min Rain = 0
KQU1 062353Z 18013KT 37/10 A2989 RMK A01 T03700102  RH  020%=      5-min Rain = 0
KQU1 062354Z 18014KT 37/10 A2989 RMK A01 T03700102  RH  020%=      5-min Rain = 0
KQU1 062355Z 17014KT 37/10 A2989 RMK A01 T03700104  RH  020%=      5-min Rain = 0
KQU1 062356Z 16016KT 37/11 A2989 RMK A01 T03690105  RH  020%=      5-min Rain = 0
KQU1 062357Z 16015KT 37/11 A2989 RMK A01 T03670105  RH  021%=      5-min Rain = 0
KQU1 062358Z 17016KT 37/11 A2989 RMK A01 T03660106  RH  021%=      5-min Rain = 0
KQU1 062359Z 17014KT 37/11 A2989 RMK A01 T03650106  RH  021%=      5-min Rain = 0
KQU1 070000Z 17013KT 36/11 A2989 RMK A01 T03640107  RH  021%=      5-min Rain = 0
KQU1 070001Z 17014KT 36/11 A2989 RMK A01 T03640107  RH  021%=      5-min Rain = 0
KQU1 070002Z 17012KT 36/11 A2989 RMK A01 T03640108  RH  021%=      5-min Rain = 0
KQU1 070003Z 17015KT 36/11 A2989 RMK A01 T03630107  RH  021%=      5-min Rain = 0
KQU1 070004Z 16015G20KT 36/11 A2989 RMK A01 T03630108  RH  021%=      5-min Rain = 0
KQU1 070005Z 17015KT 36/11 A2989 RMK A01 T03620107  RH  021%=      5-min Rain = 0
KQU1 070006Z 17013KT 36/11 A2989 RMK A01 T03620108  RH  022%=      5-min Rain = 0
KQU1 070007Z 17015KT 36/11 A2989 RMK A01 T03610108  RH  022%=      5-min Rain = 0
KQU1 070008Z 17016KT 36/11 A2989 RMK A01 T03600106  RH  021%=      5-min Rain = 0
KQU1 070009Z 16014KT 36/11 A2989 RMK A01 T03600108  RH  022%=      5-min Rain = 0
KQU1 070010Z 16015KT 36/11 A2989 RMK A01 T03590109  RH  022%=      5-min Rain = 0
KQU1 070011Z 16015KT 36/11 A299 RMK A01 T03590109  RH  022%=      5-min Rain = 0
KQU1 070012Z 16016KT 36/11 A299 RMK A01 T03590110  RH  022%=      5-min Rain = 0
KQU1 070013Z 16015KT 36/11 A299 RMK A01 T03580111  RH  022%=      5-min Rain = 0
KQU1 070014Z 15014KT 36/11 A299 RMK A01 T03580112  RH  023%=      5-min Rain = 0
KQU1 070015Z 15015G20KT 36/11 A299 RMK A01 T03580113  RH  023%=      5-min Rain = 0
KQU1 070016Z 16015G20KT 36/11 A299 RMK A01 T03580113  RH  023%=      5-min Rain = 0
KQU1 070017Z 15016G22KT 36/12 A299 RMK A01 T03580115  RH  023%=      5-min Rain = 0
KQU1 070018Z 15016KT 36/11 A2989 RMK A01 T03580114  RH  023%=      5-min Rain = 0
KQU1 070019Z 15018KT 36/11 A299 RMK A01 T03580114  RH  023%=      5-min Rain = 0
KQU1 070020Z 15017KT 36/12 A299 RMK A01 T03580115  RH  023%=      5-min Rain = 0
KQU1 070021Z 15018KT 36/11 A299 RMK A01 T03570114  RH  023%=      5-min Rain = 0
KQU1 070022Z 15018KT 36/12 A299 RMK A01 T03560115  RH  023%=      5-min Rain = 0
KQU1 070023Z 15017KT 36/12 A299 RMK A01 T03560116  RH  023%=      5-min Rain = 0
KQU1 070024Z 15017KT 36/12 A299 RMK A01 T03550117  RH  024%=      5-min Rain = 0
KQU1 070025Z 15016KT 35/12 A299 RMK A01 T03540117  RH  024%=      5-min Rain = 0
KQU1 070026Z 14014KT 35/12 A299 RMK A01 T03540120  RH  024%=      5-min Rain = 0
KQU1 070027Z 15017KT 35/12 A299 RMK A01 T03530119  RH  024%=      5-min Rain = 0
KQU1 070028Z 14016KT 35/12 A299 RMK A01 T03520120  RH  025%=      5-min Rain = 0
KQU1 070029Z 15014KT 35/12 A299 RMK A01 T03520121  RH  025%=      5-min Rain = 0
KQU1 070030Z 14014KT 35/12 A299 RMK A01 T03510122  RH  025%=      5-min Rain = 0
KQU1 070031Z 14016KT 35/12 A299 RMK A01 T03510122  RH  025%=      5-min Rain = 0
KQU1 070032Z 15016KT 35/12 A299 RMK A01 T03500122  RH  025%=      5-min Rain = 0
KQU1 070033Z 15016KT 35/12 A299 RMK A01 T03500122  RH  025%=      5-min Rain = 0
KQU1 070034Z 15014KT 35/12 A299 RMK A01 T03500123  RH  025%=      5-min Rain = 0
KQU1 070035Z 15014KT 35/12 A299 RMK A01 T03490123  RH  026%=      5-min Rain = 0
KQU1 070036Z 15016KT 35/12 A299 RMK A01 T03490123  RH  025%=      5-min Rain = 0
KQU1 070037Z 15015KT 35/12 A299 RMK A01 T03490123  RH  026%=      5-min Rain = 0
KQU1 070038Z 15013KT 35/12 A299 RMK A01 T03490124  RH  026%=      5-min Rain = 0
KQU1 070039Z 15012KT 35/13 A299 RMK A01 T03480125  RH  026%=      5-min Rain = 0
KQU1 070040Z 15013KT 35/13 A299 RMK A01 T03480125  RH  026%=      5-min Rain = 0
KQU1 070041Z 16012KT 35/13 A299 RMK A01 T03480126  RH  026%=      5-min Rain = 0
KQU1 070042Z 16013KT 35/13 A299 RMK A01 T03480127  RH  026%=      5-min Rain = 0
KQU1 070043Z 16012KT 35/13 A299 RMK A01 T03470128  RH  027%=      5-min Rain = 0
KQU1 070044Z 15012KT 35/13 A299 RMK A01 T03470129  RH  027%=      5-min Rain = 0
KQU1 070045Z 15010KT 35/13 A299 RMK A01 T03460130  RH  027%=      5-min Rain = 0
KQU1 070046Z 15014KT 35/13 A299 RMK A01 T03460130  RH  027%=      5-min Rain = 0
KQU1 070047Z 15014KT 35/13 A299 RMK A01 T03460129  RH  027%=      5-min Rain = 0
KQU1 070048Z 15013KT 35/13 A299 RMK A01 T03460131  RH  027%=      5-min Rain = 0
KQU1 070049Z 15014KT 35/13 A299 RMK A01 T03450130  RH  027%=      5-min Rain = 0
KQU1 070050Z 16013KT 34/13 A299 RMK A01 T03440131  RH  028%=      5-min Rain = 0
KQU1 070051Z 15014KT 34/13 A299 RMK A01 T03440130  RH  028%=      5-min Rain = 0
KQU1 070052Z 16013KT 34/13 A299 RMK A01 T03430130  RH  028%=      5-min Rain = 0
KQU1 070053Z 15014KT 34/13 A299 RMK A01 T03430131  RH  028%=      5-min Rain = 0
KQU1 070054Z 15014KT 34/13 A299 RMK A01 T03420130  RH  028%=      5-min Rain = 0
KQU1 070055Z 15013KT 34/13 A299 RMK A01 T03420130  RH  028%=      5-min Rain = 0
KQU1 070056Z 15014KT 34/13 A299 RMK A01 T03410130  RH  028%=      5-min Rain = 0
KQU1 070057Z 15012KT 34/13 A299 RMK A01 T03410129  RH  028%=      5-min Rain = 0
KQU1 070058Z 16013KT 34/13 A299 RMK A01 T03410126  RH  027%=      5-min Rain = 0
KQU1 070059Z 16014KT 34/13 A299 RMK A01 T03420125  RH  027%=      5-min Rain = 0
KQU1 070100Z 16010KT 34/13 A299 RMK A01 T03430125  RH  027%=      5-min Rain = 0
KQU1 070101Z 15010KT 34/13 A2991 RMK A01 T03430125  RH  027%=      5-min Rain = 0
KQU1 070102Z 15014G21KT 34/13 A2991 RMK A01 T03430125  RH  027%=      5-min Rain = 0
KQU1 070103Z 15013KT 34/13 A2991 RMK A01 T03430125  RH  027%=      5-min Rain = 0
KQU1 070104Z 15014KT 34/13 A2991 RMK A01 T03430125  RH  027%=      5-min Rain = 0
KQU1 070105Z 15016KT 34/13 A299 RMK A01 T03420125  RH  027%=      5-min Rain = 0
KQU1 070106Z 15018KT 34/13 A299 RMK A01 T03420126  RH  027%=      5-min Rain = 0
KQU1 070107Z 15018KT 34/13 A299 RMK A01 T03420125  RH  027%=      5-min Rain = 0
KQU1 070108Z 15016KT 34/13 A299 RMK A01 T03420126  RH  027%=      5-min Rain = 0
KQU1 070109Z 15016KT 34/13 A2991 RMK A01 T03420126  RH  027%=      5-min Rain = 0
KQU1 070110Z 15016KT 34/13 A2991 RMK A01 T03410127  RH  027%=      5-min Rain = 0
KQU1 070111Z 15016KT 34/13 A2991 RMK A01 T03410127  RH  027%=      5-min Rain = 0
KQU1 070112Z 15016KT 34/13 A2991 RMK A01 T03400126  RH  027%=      5-min Rain = 0
KQU1 070113Z 16013KT 34/13 A2991 RMK A01 T03400127  RH  027%=      5-min Rain = 0
KQU1 070114Z 15016G22KT 34/13 A2991 RMK A01 T03400127  RH  028%=      5-min Rain = 0
KQU1 070115Z 15014KT 34/13 A2991 RMK A01 T03390127  RH  028%=      5-min Rain = 0
KQU1 070116Z 15015KT 34/13 A2991 RMK A01 T03390127  RH  028%=      5-min Rain = 0
KQU1 070117Z 15016KT 34/13 A2991 RMK A01 T03390127  RH  028%=      5-min Rain = 0
KQU1 070118Z 15014KT 34/13 A2991 RMK A01 T03380127  RH  028%=      5-min Rain = 0
KQU1 070119Z 16012G17KT 34/13 A2991 RMK A01 T03380127  RH  028%=      5-min Rain = 0
KQU1 070120Z 16014KT 34/13 A2991 RMK A01 T03380127  RH  028%=      5-min Rain = 0
KQU1 070121Z 16011KT 34/13 A2991 RMK A01 T03380127  RH  028%=      5-min Rain = 0
KQU1 070122Z 15013KT 34/13 A2991 RMK A01 T03370127  RH  028%=      5-min Rain = 0
KQU1 070123Z 15013KT 34/13 A2991 RMK A01 T03360128  RH  028%=      5-min Rain = 0
KQU1 070124Z 15013KT 34/13 A2991 RMK A01 T03360128  RH  028%=      5-min Rain = 0
KQU1 070125Z 15012KT 34/13 A2991 RMK A01 T03350128  RH  029%=      5-min Rain = 0
KQU1 070126Z 15013KT 33/13 A2991 RMK A01 T03340128  RH  029%=      5-min Rain = 0
KQU1 070127Z 15015KT 33/13 A2991 RMK A01 T03340128  RH  029%=      5-min Rain = 0
KQU1 070128Z 15014KT 33/13 A2991 RMK A01 T03330129  RH  029%=      5-min Rain = 0
KQU1 070129Z 15015KT 33/13 A2991 RMK A01 T03320128  RH  029%=      5-min Rain = 0
KQU1 070130Z 15014KT 33/13 A2991 RMK A01 T03310128  RH  029%=      5-min Rain = 0
KQU1 070131Z 15013KT 33/13 A2991 RMK A01 T03310128  RH  029%=      5-min Rain = 0
KQU1 070132Z 15012KT 33/13 A2991 RMK A01 T03300128  RH  029%=      5-min Rain = 0
KQU1 070133Z 16012KT 33/13 A2991 RMK A01 T03300127  RH  029%=      5-min Rain = 0
KQU1 070134Z 16012KT 33/13 A2991 RMK A01 T03300126  RH  029%=      5-min Rain = 0
KQU1 070135Z 16012KT 33/13 A2991 RMK A01 T03300127  RH  029%=      5-min Rain = 0
KQU1 070136Z 15012KT 33/13 A2992 RMK A01 T03300127  RH  029%=      5-min Rain = 0
KQU1 070137Z 16012KT 33/13 A2992 RMK A01 T03290128  RH  029%=      5-min Rain = 0
KQU1 070138Z 15014KT 33/13 A2992 RMK A01 T03280127  RH  029%=      5-min Rain = 0
KQU1 070139Z 15016KT 33/13 A2992 RMK A01 T03280126  RH  029%=      5-min Rain = 0
KQU1 070140Z 15015KT 33/13 A2992 RMK A01 T03280125  RH  029%=      5-min Rain = 0
KQU1 070141Z 16013KT 33/13 A2992 RMK A01 T03290125  RH  029%=      5-min Rain = 0
KQU1 070142Z 16012KT 33/13 A2992 RMK A01 T03300125  RH  029%=      5-min Rain = 0
KQU1 070143Z 16012KT 33/13 A2992 RMK A01 T03300125  RH  029%=      5-min Rain = 0
KQU1 070144Z 15013KT 33/13 A2992 RMK A01 T03300125  RH  029%=      5-min Rain = 0
KQU1 070145Z 15011KT 33/13 A2992 RMK A01 T03300125  RH  029%=      5-min Rain = 0
KQU1 070146Z 16013KT 33/13 A2992 RMK A01 T03300125  RH  029%=      5-min Rain = 0
KQU1 070147Z 16012KT 33/13 A2992 RMK A01 T03300125  RH  029%=      5-min Rain = 0
KQU1 070148Z 16011KT 33/13 A2992 RMK A01 T03300125  RH  029%=      5-min Rain = 0
KQU1 070149Z 16013KT 33/13 A2992 RMK A01 T03290125  RH  029%=      5-min Rain = 0
KQU1 070150Z 16011KT 33/13 A2992 RMK A01 T03290125  RH  029%=      5-min Rain = 0
KQU1 070151Z 16010KT 33/13 A2992 RMK A01 T03280125  RH  029%=      5-min Rain = 0
KQU1 070152Z 16012KT 33/13 A2992 RMK A01 T03280125  RH  029%=      5-min Rain = 0
KQU1 070153Z 16012KT 33/13 A2992 RMK A01 T03280125  RH  029%=      5-min Rain = 0
KQU1 070154Z 15012KT 33/13 A2992 RMK A01 T03280125  RH  029%=      5-min Rain = 0
KQU1 070155Z 16012KT 33/13 A2992 RMK A01 T03280125  RH  029%=      5-min Rain = 0
KQU1 070156Z 15012KT 33/13 A2992 RMK A01 T03280125  RH  029%=      5-min Rain = 0
KQU1 070157Z 15011KT 33/13 A2992 RMK A01 T03280125  RH  029%=      5-min Rain = 0
KQU1 070158Z 15009KT 33/13 A2992 RMK A01 T03270126  RH  029%=      5-min Rain = 0
KQU1 070159Z 15010KT 33/13 A2992 RMK A01 T03260126  RH  030%=      5-min Rain = 0
KQU1 070200Z 15010KT 33/13 A2992 RMK A01 T03250127  RH  030%=      5-min Rain = 0
KQU1 070201Z 15010KT 32/13 A2992 RMK A01 T03240127  RH  030%=      5-min Rain = 0
KQU1 070202Z 15011KT 32/13 A2992 RMK A01 T03230127  RH  030%=      5-min Rain = 0
KQU1 070203Z 15012KT 32/13 A2993 RMK A01 T03220128  RH  031%=      5-min Rain = 0
KQU1 070204Z 15012KT 32/13 A2993 RMK A01 T03210127  RH  031%=      5-min Rain = 0
KQU1 070205Z 14012KT 32/13 A2993 RMK A01 T03210128  RH  031%=      5-min Rain = 0
KQU1 070206Z 15012KT 32/13 A2993 RMK A01 T03200127  RH  031%=      5-min Rain = 0
KQU1 070207Z 15013KT 32/13 A2993 RMK A01 T03200127  RH  031%=      5-min Rain = 0
KQU1 070208Z 15014KT 32/13 A2993 RMK A01 T03200127  RH  031%=      5-min Rain = 0
KQU1 070209Z 15014KT 32/13 A2993 RMK A01 T03200127  RH  031%=      5-min Rain = 0
KQU1 070210Z 15013KT 32/13 A2993 RMK A01 T03200128  RH  031%=      5-min Rain = 0
KQU1 070211Z 15013KT 32/13 A2993 RMK A01 T03200128  RH  031%=      5-min Rain = 0
KQU1 070212Z 15013KT 32/13 A2993 RMK A01 T03190128  RH  031%=      5-min Rain = 0
KQU1 070213Z 15012KT 32/13 A2993 RMK A01 T03180128  RH  031%=      5-min Rain = 0
KQU1 070214Z 15013KT 32/13 A2993 RMK A01 T03180129  RH  032%=      5-min Rain = 0
KQU1 070215Z 15013KT 32/13 A2993 RMK A01 T03170129  RH  032%=      5-min Rain = 0
KQU1 070216Z 15012KT 32/13 A2993 RMK A01 T03160129  RH  032%=      5-min Rain = 0
KQU1 070217Z 15013KT 32/13 A2993 RMK A01 T03160129  RH  032%=      5-min Rain = 0
KQU1 070218Z 15012KT 32/13 A2993 RMK A01 T03150129  RH  032%=      5-min Rain = 0
KQU1 070219Z 15012KT 32/13 A2993 RMK A01 T03150130  RH  032%=      5-min Rain = 0
KQU1 070220Z 15011KT 31/13 A2993 RMK A01 T03140130  RH  033%=      5-min Rain = 0
KQU1 070221Z 15011KT 31/13 A2993 RMK A01 T03130130  RH  033%=      5-min Rain = 0
KQU1 070222Z 15011KT 31/13 A2993 RMK A01 T03120130  RH  033%=      5-min Rain = 0
KQU1 070223Z 15011KT 31/13 A2993 RMK A01 T03120130  RH  033%=      5-min Rain = 0
KQU1 070224Z 15011KT 31/13 A2993 RMK A01 T03110130  RH  033%=      5-min Rain = 0
KQU1 070225Z 15010KT 31/13 A2993 RMK A01 T03110130  RH  033%=      5-min Rain = 0
KQU1 070226Z 15010KT 31/13 A2993 RMK A01 T03100131  RH  033%=      5-min Rain = 0
KQU1 070227Z 15011KT 31/13 A2993 RMK A01 T03100130  RH  033%=      5-min Rain = 0
KQU1 070228Z 15010KT 31/13 A2993 RMK A01 T03100131  RH  033%=      5-min Rain = 0
KQU1 070229Z 15010KT 31/13 A2993 RMK A01 T03090130  RH  034%=      5-min Rain = 0
KQU1 070230Z 15010KT 31/13 A2993 RMK A01 T03090130  RH  034%=      5-min Rain = 0
KQU1 070231Z 15010KT 31/13 A2993 RMK A01 T03090130  RH  034%=      5-min Rain = 0
KQU1 070232Z 15010KT 31/13 A2993 RMK A01 T03080130  RH  034%=      5-min Rain = 0
KQU1 070233Z 15010KT 31/13 A2993 RMK A01 T03080130  RH  034%=      5-min Rain = 0
KQU1 070234Z 15009KT 31/13 A2993 RMK A01 T03080131  RH  034%=      5-min Rain = 0
KQU1 070235Z 15009KT 31/13 A2993 RMK A01 T03080131  RH  034%=      5-min Rain = 0
KQU1 070236Z 15010KT 31/13 A2993 RMK A01 T03070131  RH  034%=      5-min Rain = 0
KQU1 070237Z 15010KT 31/13 A2993 RMK A01 T03070131  RH  034%=      5-min Rain = 0
KQU1 070238Z 15009KT 31/13 A2993 RMK A01 T03070132  RH  034%=      5-min Rain = 0
KQU1 070239Z 15010KT 31/13 A2993 RMK A01 T03060132  RH  034%=      5-min Rain = 0
KQU1 070240Z 15009KT 31/13 A2993 RMK A01 T03060132  RH  035%=      5-min Rain = 0
KQU1 070241Z 15010KT 31/13 A2993 RMK A01 T03060133  RH  035%=      5-min Rain = 0
KQU1 070242Z 15010KT 31/13 A2993 RMK A01 T03050133  RH  035%=      5-min Rain = 0
KQU1 070243Z 15009KT 31/13 A2993 RMK A01 T03050133  RH  035%=      5-min Rain = 0
KQU1 070244Z 15010KT 31/13 A2993 RMK A01 T03050133  RH  035%=      5-min Rain = 0
KQU1 070245Z 15009KT 30/13 A2993 RMK A01 T03040134  RH  035%=      5-min Rain = 0
KQU1 070246Z 15009KT 30/13 A2993 RMK A01 T03040134  RH  035%=      5-min Rain = 0
KQU1 070247Z 15010KT 30/13 A2993 RMK A01 T03040134  RH  036%=      5-min Rain = 0
KQU1 070248Z 15009KT 30/14 A2993 RMK A01 T03030135  RH  036%=      5-min Rain = 0
KQU1 070249Z 15009KT 30/14 A2993 RMK A01 T03030135  RH  036%=      5-min Rain = 0
KQU1 070250Z 15010KT 30/14 A2993 RMK A01 T03030135  RH  036%=      5-min Rain = 0
KQU1 070251Z 15009KT 30/14 A2993 RMK A01 T03030135  RH  036%=      5-min Rain = 0
KQU1 070252Z 15009KT 30/14 A2993 RMK A01 T03030135  RH  036%=      5-min Rain = 0
KQU1 070253Z 15009KT 30/14 A2993 RMK A01 T03030136  RH  036%=      5-min Rain = 0
KQU1 070254Z 15009KT 30/14 A2994 RMK A01 T03030136  RH  036%=      5-min Rain = 0
KQU1 070255Z 15009KT 30/14 A2994 RMK A01 T03030136  RH  036%=      5-min Rain = 0
KQU1 070256Z 15008KT 30/14 A2994 RMK A01 T03030136  RH  036%=      5-min Rain = 0
KQU1 070257Z 15009KT 30/14 A2994 RMK A01 T03020136  RH  036%=      5-min Rain = 0
KQU1 070258Z 15008KT 30/14 A2994 RMK A01 T03020137  RH  036%=      5-min Rain = 0
KQU1 070259Z 15008KT 30/14 A2994 RMK A01 T03020136  RH  036%=      5-min Rain = 0
KQU1 070300Z 16008KT 30/14 A2994 RMK A01 T03020137  RH  036%=      5-min Rain = 0
KQU1 070301Z 16008KT 30/14 A2994 RMK A01 T03010136  RH  036%=      5-min Rain = 0
KQU1 070302Z 16008KT 30/14 A2994 RMK A01 T03010137  RH  037%=      5-min Rain = 0
KQU1 070303Z 16008KT 30/14 A2994 RMK A01 T03010137  RH  037%=      5-min Rain = 0
KQU1 070304Z 16009KT 30/14 A2994 RMK A01 T03010137  RH  037%=      5-min Rain = 0
KQU1 070305Z 16009KT 30/14 A2994 RMK A01 T03010137  RH  037%=      5-min Rain = 0
KQU1 070306Z 16008KT 30/14 A2994 RMK A01 T03010137  RH  037%=      5-min Rain = 0
KQU1 070307Z 16008KT 30/14 A2994 RMK A01 T03000137  RH  037%=      5-min Rain = 0
KQU1 070308Z 15009KT 30/14 A2994 RMK A01 T03000137  RH  037%=      5-min Rain = 0
KQU1 070309Z 15008KT 30/14 A2994 RMK A01 T03000138  RH  037%=      5-min Rain = 0
KQU1 070310Z 15009KT 30/14 A2994 RMK A01 T03000138  RH  037%=      5-min Rain = 0
KQU1 070311Z 16009KT 30/14 A2994 RMK A01 T03000138  RH  037%=      5-min Rain = 0
KQU1 070312Z 15010KT 30/14 A2994 RMK A01 T03000137  RH  037%=      5-min Rain = 0
KQU1 070313Z 15009KT 30/14 A2994 RMK A01 T03000137  RH  037%=      5-min Rain = 0
KQU1 070314Z 16009KT 30/14 A2994 RMK A01 T03000138  RH  037%=      5-min Rain = 0
KQU1 070315Z 16009KT 30/14 A2994 RMK A01 T02990137  RH  037%=      5-min Rain = 0
KQU1 070316Z 16009KT 30/14 A2994 RMK A01 T02990137  RH  037%=      5-min Rain = 0
KQU1 070317Z 16009KT 30/14 A2994 RMK A01 T02990137  RH  037%=      5-min Rain = 0
KQU1 070318Z 16009KT 30/14 A2994 RMK A01 T02990138  RH  037%=      5-min Rain = 0
KQU1 070319Z 16009KT 30/14 A2994 RMK A01 T02990137  RH  037%=      5-min Rain = 0
KQU1 070320Z 16009KT 30/14 A2994 RMK A01 T02990137  RH  037%=      5-min Rain = 0
KQU1 070321Z 16008KT 30/14 A2994 RMK A01 T02980137  RH  037%=      5-min Rain = 0
KQU1 070322Z 16009KT 30/14 A2994 RMK A01 T02980137  RH  037%=      5-min Rain = 0
KQU1 070323Z 16009KT 30/14 A2994 RMK A01 T02980136  RH  037%=      5-min Rain = 0
KQU1 070324Z 16009KT 30/14 A2994 RMK A01 T02990136  RH  037%=      5-min Rain = 0
KQU1 070325Z 17009KT 30/14 A2994 RMK A01 T02990135  RH  037%=      5-min Rain = 0
KQU1 070326Z 17010KT 30/14 A2994 RMK A01 T02990135  RH  037%=      5-min Rain = 0
KQU1 070327Z 17009KT 30/14 A2994 RMK A01 T03000135  RH  036%=      5-min Rain = 0
KQU1 070328Z 17009KT 30/13 A2994 RMK A01 T03000134  RH  036%=      5-min Rain = 0
KQU1 070329Z 17009KT 30/13 A2994 RMK A01 T03000134  RH  036%=      5-min Rain = 0
KQU1 070330Z 17010KT 30/13 A2994 RMK A01 T03000134  RH  036%=      5-min Rain = 0
KQU1 070331Z 17010KT 30/13 A2994 RMK A01 T03000134  RH  036%=      5-min Rain = 0
KQU1 070332Z 18010KT 30/13 A2994 RMK A01 T03000134  RH  036%=      5-min Rain = 0
KQU1 070333Z 18011KT 30/13 A2994 RMK A01 T03000134  RH  036%=      5-min Rain = 0
KQU1 070334Z 18011KT 30/13 A2994 RMK A01 T03000134  RH  036%=      5-min Rain = 0
KQU1 070335Z 18012KT 30/13 A2994 RMK A01 T03000134  RH  036%=      5-min Rain = 0
KQU1 070336Z 18013KT 30/13 A2994 RMK A01 T03000133  RH  036%=      5-min Rain = 0
KQU1 070337Z 18013KT 30/13 A2994 RMK A01 T03000133  RH  036%=      5-min Rain = 0
KQU1 070338Z 18012KT 30/13 A2994 RMK A01 T03000133  RH  036%=      5-min Rain = 0
KQU1 070339Z 18012KT 30/13 A2994 RMK A01 T02990133  RH  036%=      5-min Rain = 0
KQU1 070340Z 19012KT 30/13 A2994 RMK A01 T02990133  RH  036%=      5-min Rain = 0
KQU1 070341Z 19013KT 30/13 A2994 RMK A01 T02980133  RH  036%=      5-min Rain = 0
KQU1 070342Z 19013KT 30/13 A2994 RMK A01 T02970133  RH  037%=      5-min Rain = 0
KQU1 070343Z 19012KT 30/13 A2994 RMK A01 T02960133  RH  037%=      5-min Rain = 0
KQU1 070344Z 19011KT 30/13 A2994 RMK A01 T02960133  RH  037%=      5-min Rain = 0
KQU1 070345Z 19011KT 30/13 A2994 RMK A01 T02950134  RH  037%=      5-min Rain = 0
KQU1 070346Z 18011KT 29/13 A2994 RMK A01 T02940134  RH  037%=      5-min Rain = 0
KQU1 070347Z 19011KT 29/13 A2994 RMK A01 T02940134  RH  038%=      5-min Rain = 0
KQU1 070348Z 19012KT 29/13 A2994 RMK A01 T02930134  RH  038%=      5-min Rain = 0
KQU1 070349Z 19012KT 29/13 A2994 RMK A01 T02930133  RH  038%=      5-min Rain = 0
KQU1 070350Z 19013KT 29/13 A2994 RMK A01 T02930132  RH  037%=      5-min Rain = 0
KQU1 070351Z 19013KT 29/13 A2994 RMK A01 T02940131  RH  037%=      5-min Rain = 0
KQU1 070352Z 19013KT 30/13 A2994 RMK A01 T02960130  RH  036%=      5-min Rain = 0
KQU1 070353Z 19010KT 30/13 A2994 RMK A01 T02960130  RH  036%=      5-min Rain = 0
KQU1 070354Z 19012KT 30/13 A2994 RMK A01 T02960129  RH  036%=      5-min Rain = 0
KQU1 070355Z 19011KT 30/13 A2994 RMK A01 T02970128  RH  035%=      5-min Rain = 0
KQU1 070356Z 19013KT 30/13 A2994 RMK A01 T02970127  RH  035%=      5-min Rain = 0
KQU1 070357Z 19011KT 30/13 A2994 RMK A01 T02970126  RH  035%=      5-min Rain = 0
KQU1 070358Z 19011KT 30/13 A2994 RMK A01 T02970127  RH  035%=      5-min Rain = 0
KQU1 070359Z 19011KT 30/13 A2994 RMK A01 T02970126  RH  035%=      5-min Rain = 0
KQU1 070400Z 18011KT 30/13 A2994 RMK A01 T02960126  RH  035%=      5-min Rain = 0
KQU1 070401Z 18011KT 30/13 A2994 RMK A01 T02960125  RH  035%=      5-min Rain = 0
KQU1 070402Z 18011KT 30/13 A2994 RMK A01 T02950125  RH  035%=      5-min Rain = 0
KQU1 070403Z 18010KT 30/13 A2994 RMK A01 T02960125  RH  035%=      5-min Rain = 0
KQU1 070404Z 18010KT 30/13 A2994 RMK A01 T02950125  RH  035%=      5-min Rain = 0
KQU1 070405Z 18011KT 30/13 A2994 RMK A01 T02950125  RH  035%=      5-min Rain = 0
KQU1 070406Z 18010KT 29/12 A2994 RMK A01 T02940124  RH  035%=      5-min Rain = 0
KQU1 070407Z 18010KT 29/12 A2994 RMK A01 T02940124  RH  035%=      5-min Rain = 0
KQU1 070408Z 17009KT 29/12 A2994 RMK A01 T02940124  RH  035%=      5-min Rain = 0
KQU1 070409Z 18009KT 29/12 A2994 RMK A01 T02930124  RH  035%=      5-min Rain = 0
KQU1 070410Z 17009KT 29/12 A2994 RMK A01 T02930124  RH  035%=      5-min Rain = 0
KQU1 070411Z 18008KT 29/12 A2994 RMK A01 T02920124  RH  035%=      5-min Rain = 0
KQU1 070412Z 18009KT 29/12 A2994 RMK A01 T02920124  RH  035%=      5-min Rain = 0
KQU1 070413Z 18008KT 29/12 A2994 RMK A01 T02920124  RH  036%=      5-min Rain = 0
KQU1 070414Z 18009KT 29/12 A2994 RMK A01 T02910124  RH  036%=      5-min Rain = 0
KQU1 070415Z 18009KT 29/12 A2994 RMK A01 T02910123  RH  036%=      5-min Rain = 0
KQU1 070416Z 18009KT 29/12 A2994 RMK A01 T02910123  RH  035%=      5-min Rain = 0
KQU1 070417Z 18008KT 29/12 A2994 RMK A01 T02910122  RH  035%=      5-min Rain = 0
KQU1 070418Z 18009KT 29/12 A2994 RMK A01 T02910121  RH  035%=      5-min Rain = 0
KQU1 070419Z 19011KT 29/12 A2995 RMK A01 T02930120  RH  035%=      5-min Rain = 0
KQU1 070420Z 19012KT 30/12 A2994 RMK A01 T02950119  RH  034%=      5-min Rain = 0
KQU1 070421Z 19012KT 30/12 A2994 RMK A01 T02960119  RH  033%=      5-min Rain = 0
KQU1 070422Z 19012KT 30/12 A2994 RMK A01 T02980119  RH  033%=      5-min Rain = 0
KQU1 070423Z 20013KT 30/12 A2994 RMK A01 T02980119  RH  033%=      5-min Rain = 0
KQU1 070424Z 20012G17KT 30/12 A2995 RMK A01 T02990119  RH  033%=      5-min Rain = 0
KQU1 070425Z 19013KT 30/12 A2995 RMK A01 T02990119  RH  033%=      5-min Rain = 0
KQU1 070426Z 20012KT 30/12 A2995 RMK A01 T02990119  RH  033%=      5-min Rain = 0
KQU1 070427Z 20011KT 30/12 A2995 RMK A01 T02990119  RH  033%=      5-min Rain = 0
KQU1 070428Z 20011KT 30/12 A2995 RMK A01 T02980119  RH  033%=      5-min Rain = 0
KQU1 070429Z 19011KT 30/12 A2995 RMK A01 T02980120  RH  033%=      5-min Rain = 0
KQU1 070430Z 20010KT 30/12 A2995 RMK A01 T02970120  RH  033%=      5-min Rain = 0
KQU1 070431Z 20011KT 30/12 A2995 RMK A01 T02970120  RH  034%=      5-min Rain = 0
KQU1 070432Z 19010KT 30/12 A2995 RMK A01 T02970119  RH  034%=      5-min Rain = 0
KQU1 070433Z 19010KT 30/12 A2995 RMK A01 T02960120  RH  034%=      5-min Rain = 0
KQU1 070434Z 19011KT 30/12 A2995 RMK A01 T02960119  RH  034%=      5-min Rain = 0
KQU1 070435Z 19011KT 30/12 A2995 RMK A01 T02960120  RH  034%=      5-min Rain = 0
KQU1 070436Z 19010KT 30/12 A2995 RMK A01 T02950120  RH  034%=      5-min Rain = 0
KQU1 070437Z 19011KT 30/12 A2995 RMK A01 T02950120  RH  034%=      5-min Rain = 0
KQU1 070438Z 19011KT 30/12 A2995 RMK A01 T02950120  RH  034%=      5-min Rain = 0
KQU1 070439Z 20009KT 29/12 A2995 RMK A01 T02940120  RH  034%=      5-min Rain = 0
KQU1 070440Z 19010KT 29/12 A2995 RMK A01 T02940120  RH  034%=      5-min Rain = 0
KQU1 070441Z 19010KT 29/12 A2995 RMK A01 T02930120  RH  034%=      5-min Rain = 0
KQU1 070442Z 20010KT 29/12 A2995 RMK A01 T02930120  RH  034%=      5-min Rain = 0
KQU1 070443Z 20010KT 29/12 A2995 RMK A01 T02930120  RH  035%=      5-min Rain = 0
KQU1 070444Z 20009KT 29/12 A2995 RMK A01 T02920121  RH  035%=      5-min Rain = 0
KQU1 070445Z 20009KT 29/12 A2995 RMK A01 T02920121  RH  035%=      5-min Rain = 0
KQU1 070446Z 21008KT 29/12 A2995 RMK A01 T02910121  RH  035%=      5-min Rain = 0
KQU1 070447Z 20009KT 29/12 A2995 RMK A01 T02900121  RH  035%=      5-min Rain = 0
KQU1 070448Z 20009KT 29/12 A2995 RMK A01 T02900121  RH  035%=      5-min Rain = 0
KQU1 070449Z 20008KT 29/12 A2995 RMK A01 T02900121  RH  035%=      5-min Rain = 0
KQU1 070450Z 21008KT 29/12 A2995 RMK A01 T02890122  RH  036%=      5-min Rain = 0
KQU1 070451Z 21008KT 29/12 A2995 RMK A01 T02880122  RH  036%=      5-min Rain = 0
KQU1 070452Z 20010KT 29/12 A2995 RMK A01 T02870122  RH  036%=      5-min Rain = 0
KQU1 070453Z 21009KT 29/12 A2995 RMK A01 T02870122  RH  036%=      5-min Rain = 0
KQU1 070454Z 21009KT 29/12 A2995 RMK A01 T02860122  RH  036%=      5-min Rain = 0
KQU1 070455Z 21009KT 29/12 A2995 RMK A01 T02860122  RH  036%=      5-min Rain = 0
KQU1 070456Z 21009KT 29/12 A2995 RMK A01 T02860122  RH  036%=      5-min Rain = 0
KQU1 070457Z 21008KT 29/12 A2995 RMK A01 T02860122  RH  036%=      5-min Rain = 0
KQU1 070458Z 21008KT 29/12 A2995 RMK A01 T02850123  RH  037%=      5-min Rain = 0
KQU1 070459Z 22008KT 28/12 A2995 RMK A01 T02840123  RH  037%=      5-min Rain = 0

Page generated in 0.0648 seconds.